PWSweather.com
Personal Weather Stations
Station Observations
GENISIM
Arvida, Jonquiere, QC G7S 2M9

ArvidaJonquiere, QC G7S 2M9

Lat: 48.435, Lon: -71.2

Elevation: 94

Station Type: National Geographic 265NC

http://www.genisim.com/weather/index.htm

Latest ConditionsUpdated 5:22:00 PM EDT Thursday, Oct 18, 2018
Currently Today's Max Today's Min Today's Average
Temperature 32.9°F0.5°C 39.7°F4.3°C 30.7°F-0.7°C 34.0°F1.1°C
Dew Point 21.3°F-5.9°C 28.5°F-1.9°C 20.4°F-6.4°C 25.5°F-3.6°C
Winds 1.6 mph NW2.6 kmh NW 7.6 mph -12.2 kmh - - 2.1 mph 3.4 kmh
Wind Gusts 9.8 mph15.8 kmh 20.6 mph33.2 kmh - -
Humidity 62% 83% 52% 71%
Pressure 30.35 in1027.8 mb 30.35 in1027.8 mb 30.03 in1016.9 mb -
Hour Temp Dew Point Humidity Winds Wind Gusts Pressure Precip Precip Rate Daily Precip Total
05:22 PM 32.9°F0.5°C 21.3°F-5.9°C 62% 1.6 mph NW2.6 kmh NW 9.8 mph15.8 kmh 30.35 in1027.8 mb 0.00 in0.0 mm 0.00 in0.0 mm 0.00 in0.0 mm
05:20 PM 32.9°F0.5°C 21.3°F-5.9°C 62% 2.2 mph NW3.5 kmh NW 9.8 mph15.8 kmh 30.35 in1027.8 mb 0.00 in0.0 mm 0.00 in0.0 mm 0.00 in0.0 mm
05:18 PM 32.9°F0.5°C 21.3°F-5.9°C 62% Calm Calm 9.8 mph15.8 kmh 30.35 in1027.8 mb 0.00 in0.0 mm 0.00 in0.0 mm 0.00 in0.0 mm
05:16 PM 32.9°F0.5°C 21.3°F-5.9°C 62% 1.6 mph NNW2.6 kmh NNW 9.8 mph15.8 kmh 30.35 in1027.8 mb 0.00 in0.0 mm 0.00 in0.0 mm 0.00 in0.0 mm
05:14 PM 33.1°F0.6°C 21.1°F-6.1°C 61% 0.7 mph NNW1.1 kmh NNW 9.8 mph15.8 kmh 30.35 in1027.8 mb 0.00 in0.0 mm 0.00 in0.0 mm 0.00 in0.0 mm
05:12 PM 33.1°F0.6°C 21.1°F-6.1°C 61% 3.1 mph NW5.0 kmh NW 9.8 mph15.8 kmh 30.34 in1027.4 mb 0.00 in0.0 mm 0.00 in0.0 mm 0.00 in0.0 mm
05:10 PM 33.1°F0.6°C 21.1°F-6.1°C 61% 2.2 mph NW3.5 kmh NW 9.8 mph15.8 kmh 30.34 in1027.4 mb 0.00 in0.0 mm 0.00 in0.0 mm 0.00 in0.0 mm
05:08 PM 33.1°F0.6°C 21.1°F-6.1°C 61% 2.2 mph NW3.5 kmh NW 11.4 mph18.3 kmh 30.34 in1027.4 mb 0.00 in0.0 mm 0.00 in0.0 mm 0.00 in0.0 mm
05:06 PM 33.1°F0.6°C 21.1°F-6.1°C 61% 2.2 mph NW3.5 kmh NW 11.4 mph18.3 kmh 30.34 in1027.4 mb 0.00 in0.0 mm 0.00 in0.0 mm 0.00 in0.0 mm
05:04 PM 32.9°F0.5°C 21.3°F-5.9°C 62% 3.1 mph WNW5.0 kmh WNW 11.4 mph18.3 kmh 30.34 in1027.4 mb 0.00 in0.0 mm 0.00 in0.0 mm 0.00 in0.0 mm
05:02 PM 32.9°F0.5°C 21.3°F-5.9°C 62% 3.1 mph NW5.0 kmh NW 11.4 mph18.3 kmh 30.34 in1027.4 mb 0.00 in0.0 mm 0.00 in0.0 mm 0.00 in0.0 mm
05:00 PM 32.9°F0.5°C 21.3°F-5.9°C 62% 3.8 mph WNW6.1 kmh WNW 11.4 mph18.3 kmh 30.34 in1027.4 mb 0.00 in0.0 mm 0.00 in0.0 mm 0.00 in0.0 mm
04:58 PM 32.7°F0.4°C 21.2°F-6.0°C 62% 3.8 mph W6.1 kmh W 11.4 mph18.3 kmh 30.34 in1027.4 mb 0.00 in0.0 mm 0.00 in0.0 mm 0.00 in0.0 mm
04:56 PM 32.7°F0.4°C 20.8°F-6.2°C 61% Calm Calm 5.4 mph8.7 kmh 30.34 in1027.4 mb 0.00 in0.0 mm 0.00 in0.0 mm 0.00 in0.0 mm
04:54 PM 32.9°F0.5°C 20.6°F-6.3°C 60% Calm Calm 5.4 mph8.7 kmh 30.34 in1027.4 mb 0.00 in0.0 mm 0.00 in0.0 mm 0.00 in0.0 mm
04:52 PM 33.1°F0.6°C 20.7°F-6.3°C 60% 2.2 mph W3.5 kmh W 5.4 mph8.7 kmh 30.34 in1027.4 mb 0.00 in0.0 mm 0.00 in0.0 mm 0.00 in0.0 mm
04:50 PM 33.1°F0.6°C 20.7°F-6.3°C 60% 0.7 mph W1.1 kmh W 4.5 mph7.2 kmh 30.33 in1027.1 mb 0.00 in0.0 mm 0.00 in0.0 mm 0.00 in0.0 mm
04:48 PM 33.3°F0.7°C 20.5°F-6.4°C 59% 1.6 mph NW2.6 kmh NW 4.5 mph7.2 kmh 30.34 in1027.4 mb 0.00 in0.0 mm 0.00 in0.0 mm 0.00 in0.0 mm
04:46 PM 33.4°F0.8°C 20.7°F-6.3°C 59% 1.6 mph W2.6 kmh W 5.4 mph8.7 kmh 30.34 in1027.4 mb 0.00 in0.0 mm 0.00 in0.0 mm 0.00 in0.0 mm
04:44 PM 33.4°F0.8°C 20.7°F-6.3°C 59% Calm Calm 5.4 mph8.7 kmh 30.34 in1027.4 mb 0.00 in0.0 mm 0.00 in0.0 mm 0.00 in0.0 mm
04:42 PM 33.6°F0.9°C 20.4°F-6.4°C 58% Calm Calm 5.4 mph8.7 kmh 30.33 in1027.1 mb 0.00 in0.0 mm 0.00 in0.0 mm 0.00 in0.0 mm
04:40 PM 34.0°F1.1°C 20.8°F-6.2°C 58% 1.6 mph WSW2.6 kmh WSW 9.2 mph14.8 kmh 30.33 in1027.1 mb 0.00 in0.0 mm 0.00 in0.0 mm 0.00 in0.0 mm
04:38 PM 34.0°F1.1°C 20.8°F-6.2°C 58% 1.6 mph S2.6 kmh S 9.2 mph14.8 kmh 30.33 in1027.1 mb 0.00 in0.0 mm 0.00 in0.0 mm 0.00 in0.0 mm
04:36 PM 34.3°F1.3°C 21.1°F-6.1°C 58% 0.7 mph ENE1.1 kmh ENE 9.2 mph14.8 kmh 30.33 in1027.1 mb 0.00 in0.0 mm 0.00 in0.0 mm 0.00 in0.0 mm
04:34 PM 34.5°F1.4°C 20.9°F-6.2°C 57% Calm Calm 9.2 mph14.8 kmh 30.33 in1027.1 mb 0.00 in0.0 mm 0.00 in0.0 mm 0.00 in0.0 mm
04:32 PM 34.7°F1.5°C 21.5°F-5.8°C 58% 2.2 mph WSW3.5 kmh WSW 9.2 mph14.8 kmh 30.33 in1027.1 mb 0.00 in0.0 mm 0.00 in0.0 mm 0.00 in0.0 mm
04:30 PM 34.9°F1.6°C 21.2°F-6.0°C 57% 2.2 mph W3.5 kmh W 9.2 mph14.8 kmh 30.33 in1027.1 mb 0.00 in0.0 mm 0.00 in0.0 mm 0.00 in0.0 mm
04:28 PM 34.9°F1.6°C 21.2°F-6.0°C 57% 1.6 mph W2.6 kmh W 8.3 mph13.4 kmh 30.32 in1026.8 mb 0.00 in0.0 mm 0.00 in0.0 mm 0.00 in0.0 mm
04:26 PM 35.1°F1.7°C 21.4°F-5.9°C 57% 0.7 mph WNW1.1 kmh WNW 6.0 mph9.7 kmh 30.32 in1026.8 mb 0.00 in0.0 mm 0.00 in0.0 mm 0.00 in0.0 mm
04:24 PM 35.1°F1.7°C 21.4°F-5.9°C 57% 2.2 mph NW3.5 kmh NW 6.0 mph9.7 kmh 30.32 in1026.8 mb 0.00 in0.0 mm 0.00 in0.0 mm 0.00 in0.0 mm
04:22 PM 35.2°F1.8°C 22.0°F-5.6°C 58% 1.6 mph NW2.6 kmh NW 10.7 mph17.2 kmh 30.32 in1026.8 mb 0.00 in0.0 mm 0.00 in0.0 mm 0.00 in0.0 mm
04:20 PM 35.2°F1.8°C 22.0°F-5.6°C 58% Calm Calm 10.7 mph17.2 kmh 30.32 in1026.8 mb 0.00 in0.0 mm 0.00 in0.0 mm 0.00 in0.0 mm
04:18 PM 35.4°F1.9°C 22.1°F-5.5°C 58% 1.6 mph NW2.6 kmh NW 10.7 mph17.2 kmh 30.32 in1026.8 mb 0.00 in0.0 mm 0.00 in0.0 mm 0.00 in0.0 mm
04:16 PM 35.6°F2.0°C 22.3°F-5.4°C 58% 0.7 mph NNW1.1 kmh NNW 10.7 mph17.2 kmh 30.32 in1026.8 mb 0.00 in0.0 mm 0.00 in0.0 mm 0.00 in0.0 mm
04:14 PM 35.6°F2.0°C 22.3°F-5.4°C 58% 1.6 mph N2.6 kmh N 10.7 mph17.2 kmh 30.32 in1026.8 mb 0.00 in0.0 mm 0.00 in0.0 mm 0.00 in0.0 mm
04:12 PM 35.8°F2.1°C 22.1°F-5.5°C 57% 2.2 mph N3.5 kmh N 10.7 mph17.2 kmh 30.32 in1026.8 mb 0.00 in0.0 mm 0.00 in0.0 mm 0.00 in0.0 mm
04:10 PM 36.0°F2.2°C 22.6°F-5.2°C 58% 0.7 mph N1.1 kmh N 5.4 mph8.7 kmh 30.32 in1026.8 mb 0.00 in0.0 mm 0.00 in0.0 mm 0.00 in0.0 mm
04:08 PM 36.0°F2.2°C 22.2°F-5.4°C 57% 1.6 mph NNW2.6 kmh NNW 6.9 mph11.1 kmh 30.32 in1026.8 mb 0.00 in0.0 mm 0.00 in0.0 mm 0.00 in0.0 mm
04:06 PM 36.3°F2.4°C 22.6°F-5.2°C 57% 1.6 mph NW2.6 kmh NW 9.8 mph15.8 kmh 30.32 in1026.8 mb 0.00 in0.0 mm 0.00 in0.0 mm 0.00 in0.0 mm
04:04 PM 36.3°F2.4°C 22.6°F-5.2°C 57% 2.2 mph WNW3.5 kmh WNW 14.5 mph23.3 kmh 30.33 in1027.1 mb 0.00 in0.0 mm 0.00 in0.0 mm 0.00 in0.0 mm
04:02 PM 36.5°F2.5°C 22.7°F-5.2°C 57% Calm Calm 14.5 mph23.3 kmh 30.32 in1026.8 mb 0.00 in0.0 mm 0.00 in0.0 mm 0.00 in0.0 mm
04:00 PM 36.3°F2.4°C 22.6°F-5.2°C 57% 0.7 mph W1.1 kmh W 14.5 mph23.3 kmh 30.32 in1026.8 mb 0.00 in0.0 mm 0.00 in0.0 mm 0.00 in0.0 mm
03:58 PM 36.3°F2.4°C 22.1°F-5.5°C 56% 2.2 mph WNW3.5 kmh WNW 14.5 mph23.3 kmh 30.32 in1026.8 mb 0.00 in0.0 mm 0.00 in0.0 mm 0.00 in0.0 mm
03:56 PM 36.5°F2.5°C 22.3°F-5.4°C 56% 3.1 mph W5.0 kmh W 14.5 mph23.3 kmh 30.32 in1026.8 mb 0.00 in0.0 mm 0.00 in0.0 mm 0.00 in0.0 mm
03:54 PM 36.5°F2.5°C 22.7°F-5.2°C 57% 0.7 mph W1.1 kmh W 10.7 mph17.2 kmh 30.32 in1026.8 mb 0.00 in0.0 mm 0.00 in0.0 mm 0.00 in0.0 mm
03:52 PM 36.5°F2.5°C 22.3°F-5.4°C 56% Calm Calm 10.7 mph17.2 kmh 30.32 in1026.8 mb 0.00 in0.0 mm 0.00 in0.0 mm 0.00 in0.0 mm
03:50 PM 36.5°F2.5°C 22.3°F-5.4°C 56% 0.7 mph WSW1.1 kmh WSW 10.7 mph17.2 kmh 30.32 in1026.8 mb 0.00 in0.0 mm 0.00 in0.0 mm 0.00 in0.0 mm
03:48 PM 36.3°F2.4°C 22.1°F-5.5°C 56% 2.2 mph WSW3.5 kmh WSW 15.9 mph25.6 kmh 30.32 in1026.8 mb 0.00 in0.0 mm 0.00 in0.0 mm 0.00 in0.0 mm
03:46 PM 36.3°F2.4°C 22.1°F-5.5°C 56% 3.8 mph WSW6.1 kmh WSW 15.9 mph25.6 kmh 30.32 in1026.8 mb 0.00 in0.0 mm 0.00 in0.0 mm 0.00 in0.0 mm
03:44 PM 36.5°F2.5°C 22.3°F-5.4°C 56% 3.8 mph SW6.1 kmh SW 15.9 mph25.6 kmh 30.32 in1026.8 mb 0.00 in0.0 mm 0.00 in0.0 mm 0.00 in0.0 mm
03:42 PM 36.5°F2.5°C 22.3°F-5.4°C 56% 3.8 mph WSW6.1 kmh WSW 15.9 mph25.6 kmh 30.32 in1026.8 mb 0.00 in0.0 mm 0.00 in0.0 mm 0.00 in0.0 mm
03:40 PM 36.5°F2.5°C 22.3°F-5.4°C 56% 4.5 mph WSW7.2 kmh WSW 15.9 mph25.6 kmh 30.32 in1026.8 mb 0.00 in0.0 mm 0.00 in0.0 mm 0.00 in0.0 mm
03:38 PM 36.7°F2.6°C 22.9°F-5.1°C 57% 0.7 mph W1.1 kmh W 20.6 mph33.2 kmh 30.32 in1026.8 mb 0.00 in0.0 mm 0.00 in0.0 mm 0.00 in0.0 mm
03:36 PM 36.7°F2.6°C 22.9°F-5.1°C 57% 3.1 mph NW5.0 kmh NW 20.6 mph33.2 kmh 30.32 in1026.8 mb 0.00 in0.0 mm 0.00 in0.0 mm 0.00 in0.0 mm
03:34 PM 36.5°F2.5°C 22.7°F-5.2°C 57% 1.6 mph NW2.6 kmh NW 20.6 mph33.2 kmh 30.32 in1026.8 mb 0.00 in0.0 mm 0.00 in0.0 mm 0.00 in0.0 mm
03:32 PM 36.5°F2.5°C 22.3°F-5.4°C 56% 2.2 mph NW3.5 kmh NW 20.6 mph33.2 kmh 30.32 in1026.8 mb 0.00 in0.0 mm 0.00 in0.0 mm 0.00 in0.0 mm
03:30 PM 36.9°F2.7°C 22.7°F-5.2°C 56% 3.8 mph NW6.1 kmh NW 20.6 mph33.2 kmh 30.32 in1026.8 mb 0.00 in0.0 mm 0.00 in0.0 mm 0.00 in0.0 mm
03:28 PM 37.0°F2.8°C 23.2°F-4.9°C 57% 2.2 mph WNW3.5 kmh WNW 12.1 mph19.5 kmh 30.32 in1026.8 mb 0.00 in0.0 mm 0.00 in0.0 mm 0.00 in0.0 mm
03:26 PM 37.0°F2.8°C 22.8°F-5.1°C 56% Calm Calm 12.1 mph19.5 kmh 30.32 in1026.8 mb 0.00 in0.0 mm 0.00 in0.0 mm 0.00 in0.0 mm
03:24 PM 37.2°F2.9°C 23.4°F-4.8°C 57% 1.6 mph W2.6 kmh W 12.1 mph19.5 kmh 30.32 in1026.8 mb 0.00 in0.0 mm 0.00 in0.0 mm 0.00 in0.0 mm
03:22 PM 37.4°F3.0°C 23.2°F-4.9°C 56% 3.8 mph W6.1 kmh W 12.1 mph19.5 kmh 30.32 in1026.8 mb 0.00 in0.0 mm 0.00 in0.0 mm 0.00 in0.0 mm
03:20 PM 37.6°F3.1°C 23.7°F-4.6°C 57% 1.6 mph W2.6 kmh W 12.1 mph19.5 kmh 30.32 in1026.8 mb 0.00 in0.0 mm 0.00 in0.0 mm 0.00 in0.0 mm
03:18 PM 37.6°F3.1°C 23.7°F-4.6°C 57% 3.1 mph W5.0 kmh W 12.1 mph19.5 kmh 30.32 in1026.8 mb 0.00 in0.0 mm 0.00 in0.0 mm 0.00 in0.0 mm
03:16 PM 37.8°F3.2°C 23.9°F-4.5°C 57% 0.7 mph WNW1.1 kmh WNW 10.7 mph17.2 kmh 30.32 in1026.8 mb 0.00 in0.0 mm 0.00 in0.0 mm 0.00 in0.0 mm
03:14 PM 38.1°F3.4°C 24.3°F-4.3°C 57% 1.6 mph WNW2.6 kmh WNW 10.7 mph17.2 kmh 30.32 in1026.8 mb 0.00 in0.0 mm 0.00 in0.0 mm 0.00 in0.0 mm
03:12 PM 38.3°F3.5°C 24.0°F-4.4°C 56% 3.8 mph WNW6.1 kmh WNW 11.4 mph18.3 kmh 30.32 in1026.8 mb 0.00 in0.0 mm 0.00 in0.0 mm 0.00 in0.0 mm
03:10 PM 38.7°F3.7°C 24.8°F-4.0°C 57% 3.8 mph WNW6.1 kmh WNW 11.4 mph18.3 kmh 30.31 in1026.4 mb 0.00 in0.0 mm 0.00 in0.0 mm 0.00 in0.0 mm
03:08 PM 38.8°F3.8°C 25.8°F-3.4°C 59% 2.2 mph NW3.5 kmh NW 17.4 mph28.0 kmh 30.31 in1026.4 mb 0.00 in0.0 mm 0.00 in0.0 mm 0.00 in0.0 mm
03:06 PM 38.3°F3.5°C 25.7°F-3.5°C 60% 0.7 mph WNW1.1 kmh WNW 17.4 mph28.0 kmh 30.31 in1026.4 mb 0.00 in0.0 mm 0.00 in0.0 mm 0.00 in0.0 mm
03:04 PM 37.9°F3.3°C 25.3°F-3.7°C 60% 0.7 mph WNW1.1 kmh WNW 17.4 mph28.0 kmh 30.32 in1026.8 mb 0.00 in0.0 mm 0.00 in0.0 mm 0.00 in0.0 mm
03:02 PM 37.8°F3.2°C 25.5°F-3.6°C 61% 0.7 mph WNW1.1 kmh WNW 17.4 mph28.0 kmh 30.32 in1026.8 mb 0.00 in0.0 mm 0.00 in0.0 mm 0.00 in0.0 mm
03:00 PM 37.4°F3.0°C 25.2°F-3.8°C 61% 2.2 mph WNW3.5 kmh WNW 17.4 mph28.0 kmh 30.31 in1026.4 mb 0.00 in0.0 mm 0.00 in0.0 mm 0.00 in0.0 mm
02:58 PM 36.9°F2.7°C 25.1°F-3.8°C 62% 2.2 mph W3.5 kmh W 16.8 mph27.0 kmh 30.32 in1026.8 mb 0.00 in0.0 mm 0.00 in0.0 mm 0.00 in0.0 mm
02:56 PM 36.0°F2.2°C 24.2°F-4.3°C 62% 0.7 mph WNW1.1 kmh WNW 16.8 mph27.0 kmh 30.31 in1026.4 mb 0.00 in0.0 mm 0.00 in0.0 mm 0.00 in0.0 mm
02:54 PM 35.8°F2.1°C 24.1°F-4.4°C 62% 4.5 mph NW7.2 kmh NW 16.8 mph27.0 kmh 30.31 in1026.4 mb 0.00 in0.0 mm 0.00 in0.0 mm 0.00 in0.0 mm
02:52 PM 35.4°F1.9°C 24.1°F-4.4°C 63% 1.6 mph NW2.6 kmh NW 9.2 mph14.8 kmh 30.31 in1026.4 mb 0.00 in0.0 mm 0.00 in0.0 mm 0.00 in0.0 mm
02:50 PM 35.6°F2.0°C 23.9°F-4.5°C 62% 3.1 mph NW5.0 kmh NW 13.6 mph21.9 kmh 30.31 in1026.4 mb 0.00 in0.0 mm 0.00 in0.0 mm 0.00 in0.0 mm
02:48 PM 35.8°F2.1°C 24.4°F-4.2°C 63% 3.1 mph NW5.0 kmh NW 13.6 mph21.9 kmh 30.32 in1026.8 mb 0.00 in0.0 mm 0.00 in0.0 mm 0.00 in0.0 mm
02:46 PM 36.1°F2.3°C 25.2°F-3.8°C 64% 3.1 mph NW5.0 kmh NW 13.6 mph21.9 kmh 30.32 in1026.8 mb 0.00 in0.0 mm 0.00 in0.0 mm 0.00 in0.0 mm
02:44 PM 36.1°F2.3°C 25.5°F-3.6°C 65% 1.6 mph NW2.6 kmh NW 13.6 mph21.9 kmh 30.32 in1026.8 mb 0.00 in0.0 mm 0.00 in0.0 mm 0.00 in0.0 mm
02:42 PM 36.1°F2.3°C 25.5°F-3.6°C 65% 2.2 mph WNW3.5 kmh WNW 13.6 mph21.9 kmh 30.31 in1026.4 mb 0.00 in0.0 mm 0.00 in0.0 mm 0.00 in0.0 mm
02:40 PM 36.0°F2.2°C 25.7°F-3.5°C 66% 2.2 mph WNW3.5 kmh WNW 10.7 mph17.2 kmh 30.32 in1026.8 mb 0.00 in0.0 mm 0.00 in0.0 mm 0.00 in0.0 mm
02:38 PM 35.8°F2.1°C 25.9°F-3.4°C 67% 1.6 mph WNW2.6 kmh WNW 10.7 mph17.2 kmh 30.32 in1026.8 mb 0.00 in0.0 mm 0.00 in0.0 mm 0.00 in0.0 mm
02:36 PM 35.8°F2.1°C 25.6°F-3.6°C 66% 3.8 mph W6.1 kmh W 10.7 mph17.2 kmh 30.32 in1026.8 mb 0.00 in0.0 mm 0.00 in0.0 mm 0.00 in0.0 mm
02:34 PM 36.0°F2.2°C 25.7°F-3.5°C 66% 2.2 mph WSW3.5 kmh WSW 7.6 mph12.2 kmh 30.32 in1026.8 mb 0.00 in0.0 mm 0.00 in0.0 mm 0.00 in0.0 mm
02:32 PM 36.1°F2.3°C 25.5°F-3.6°C 65% 1.6 mph WSW2.6 kmh WSW 6.9 mph11.1 kmh 30.32 in1026.8 mb 0.00 in0.0 mm 0.00 in0.0 mm 0.00 in0.0 mm
02:30 PM 36.3°F2.4°C 25.7°F-3.5°C 65% 2.2 mph WSW3.5 kmh WSW 6.0 mph9.7 kmh 30.32 in1026.8 mb 0.00 in0.0 mm 0.00 in0.0 mm 0.00 in0.0 mm
02:28 PM 36.7°F2.6°C 26.0°F-3.3°C 65% 1.6 mph WSW2.6 kmh WSW 8.3 mph13.4 kmh 30.32 in1026.8 mb 0.00 in0.0 mm 0.00 in0.0 mm 0.00 in0.0 mm
02:26 PM 36.9°F2.7°C 26.2°F-3.2°C 65% 1.6 mph W2.6 kmh W 8.3 mph13.4 kmh 30.31 in1026.4 mb 0.00 in0.0 mm 0.00 in0.0 mm 0.00 in0.0 mm
02:24 PM 36.9°F2.7°C 26.9°F-2.8°C 67% 0.7 mph W1.1 kmh W 8.3 mph13.4 kmh 30.32 in1026.8 mb 0.00 in0.0 mm 0.00 in0.0 mm 0.00 in0.0 mm
02:22 PM 36.3°F2.4°C 26.8°F-2.9°C 68% 1.6 mph W2.6 kmh W 8.3 mph13.4 kmh 30.31 in1026.4 mb 0.00 in0.0 mm 0.00 in0.0 mm 0.00 in0.0 mm
02:20 PM 36.1°F2.3°C 26.6°F-3.0°C 68% Calm Calm 9.2 mph14.8 kmh 30.31 in1026.4 mb 0.00 in0.0 mm 0.00 in0.0 mm 0.00 in0.0 mm
02:18 PM 36.0°F2.2°C 27.1°F-2.7°C 70% 2.2 mph NW3.5 kmh NW 9.2 mph14.8 kmh 30.31 in1026.4 mb 0.00 in0.0 mm 0.00 in0.0 mm 0.00 in0.0 mm
02:16 PM 35.8°F2.1°C 28.3°F-2.1°C 74% 2.2 mph NW3.5 kmh NW 9.2 mph14.8 kmh 30.31 in1026.4 mb 0.00 in0.0 mm 0.00 in0.0 mm 0.00 in0.0 mm
02:14 PM 35.4°F1.9°C 28.3°F-2.1°C 75% 0.7 mph WNW1.1 kmh WNW 9.2 mph14.8 kmh 30.31 in1026.4 mb 0.00 in0.0 mm 0.00 in0.0 mm 0.00 in0.0 mm
02:12 PM 34.9°F1.6°C 28.1°F-2.2°C 76% 1.6 mph WNW2.6 kmh WNW 9.2 mph14.8 kmh 30.31 in1026.4 mb 0.00 in0.0 mm 0.00 in0.0 mm 0.00 in0.0 mm
02:10 PM 34.5°F1.4°C 28.4°F-2.0°C 78% 2.2 mph W3.5 kmh W 7.6 mph12.2 kmh 30.31 in1026.4 mb 0.00 in0.0 mm 0.00 in0.0 mm 0.00 in0.0 mm
02:08 PM 34.0°F1.1°C 28.5°F-1.9°C 80% 1.6 mph WSW2.6 kmh WSW 6.9 mph11.1 kmh 30.32 in1026.8 mb 0.00 in0.0 mm 0.00 in0.0 mm 0.00 in0.0 mm
02:06 PM 33.6°F0.9°C 28.4°F-2.0°C 81% Calm Calm 6.9 mph11.1 kmh 30.31 in1026.4 mb 0.00 in0.0 mm 0.00 in0.0 mm 0.00 in0.0 mm
02:04 PM 33.3°F0.7°C 28.1°F-2.2°C 81% Calm Calm 6.9 mph11.1 kmh 30.32 in1026.8 mb 0.00 in0.0 mm 0.00 in0.0 mm 0.00 in0.0 mm
02:02 PM 32.7°F0.4°C 27.6°F-2.4°C 81% 3.1 mph WNW5.0 kmh WNW 8.3 mph13.4 kmh 30.32 in1026.8 mb 0.00 in0.0 mm 0.00 in0.0 mm 0.00 in0.0 mm
02:00 PM 32.4°F0.2°C 26.9°F-2.8°C 80% Calm Calm 8.3 mph13.4 kmh 30.32 in1026.8 mb 0.00 in0.0 mm 0.00 in0.0 mm 0.00 in0.0 mm
01:58 PM 32.2°F0.1°C 26.7°F-2.9°C 80% 2.2 mph NW3.5 kmh NW 8.3 mph13.4 kmh 30.32 in1026.8 mb 0.00 in0.0 mm 0.00 in0.0 mm 0.00 in0.0 mm
01:56 PM 32.4°F0.2°C 26.6°F-3.0°C 79% 1.6 mph W2.6 kmh W 8.3 mph13.4 kmh 30.32 in1026.8 mb 0.00 in0.0 mm 0.00 in0.0 mm 0.00 in0.0 mm
01:54 PM 32.5°F0.3°C 26.8°F-2.9°C 79% 2.2 mph W3.5 kmh W 8.3 mph13.4 kmh 30.32 in1026.8 mb 0.00 in0.0 mm 0.00 in0.0 mm 0.00 in0.0 mm
01:52 PM 32.9°F0.5°C 26.8°F-2.9°C 78% Calm Calm 8.3 mph13.4 kmh 30.32 in1026.8 mb 0.00 in0.0 mm 0.00 in0.0 mm 0.00 in0.0 mm
01:50 PM 33.1°F0.6°C 26.7°F-2.9°C 77% 1.6 mph WSW2.6 kmh WSW 8.3 mph13.4 kmh 30.32 in1026.8 mb 0.00 in0.0 mm 0.00 in0.0 mm 0.00 in0.0 mm
01:48 PM 33.4°F0.8°C 26.7°F-2.9°C 76% 1.6 mph WSW2.6 kmh WSW 8.3 mph13.4 kmh 30.31 in1026.4 mb 0.00 in0.0 mm 0.00 in0.0 mm 0.00 in0.0 mm
01:46 PM 33.8°F1.0°C 27.1°F-2.7°C 76% 2.2 mph W3.5 kmh W 8.3 mph13.4 kmh 30.32 in1026.8 mb 0.00 in0.0 mm 0.00 in0.0 mm 0.00 in0.0 mm
01:44 PM 34.5°F1.4°C 27.1°F-2.7°C 74% 4.5 mph W7.2 kmh W 9.2 mph14.8 kmh 30.32 in1026.8 mb 0.00 in0.0 mm 0.00 in0.0 mm 0.00 in0.0 mm
01:42 PM 34.9°F1.6°C 27.1°F-2.7°C 73% 2.2 mph NW3.5 kmh NW 9.2 mph14.8 kmh 30.32 in1026.8 mb 0.00 in0.0 mm 0.00 in0.0 mm 0.00 in0.0 mm
01:40 PM 35.1°F1.7°C 27.3°F-2.6°C 73% Calm Calm 9.2 mph14.8 kmh 30.32 in1026.8 mb 0.00 in0.0 mm 0.00 in0.0 mm 0.00 in0.0 mm
01:38 PM 35.1°F1.7°C 27.3°F-2.6°C 73% 2.2 mph NW3.5 kmh NW 9.2 mph14.8 kmh 30.32 in1026.8 mb 0.00 in0.0 mm 0.00 in0.0 mm 0.00 in0.0 mm
01:36 PM 34.7°F1.5°C 27.0°F-2.8°C 73% 2.2 mph WNW3.5 kmh WNW 9.2 mph14.8 kmh 30.32 in1026.8 mb 0.00 in0.0 mm 0.00 in0.0 mm 0.00 in0.0 mm
01:34 PM 34.5°F1.4°C 26.8°F-2.9°C 73% 3.1 mph WNW5.0 kmh WNW 9.2 mph14.8 kmh 30.32 in1026.8 mb 0.00 in0.0 mm 0.00 in0.0 mm 0.00 in0.0 mm
01:32 PM 34.2°F1.2°C 26.1°F-3.3°C 72% 1.6 mph W2.6 kmh W 9.2 mph14.8 kmh 30.32 in1026.8 mb 0.00 in0.0 mm 0.00 in0.0 mm 0.00 in0.0 mm
01:30 PM 34.2°F1.2°C 25.8°F-3.4°C 71% 1.6 mph W2.6 kmh W 11.4 mph18.3 kmh 30.32 in1026.8 mb 0.00 in0.0 mm 0.00 in0.0 mm 0.00 in0.0 mm
01:28 PM 34.3°F1.3°C 25.6°F-3.6°C 70% 1.6 mph W2.6 kmh W 11.4 mph18.3 kmh 30.32 in1026.8 mb 0.00 in0.0 mm 0.00 in0.0 mm 0.00 in0.0 mm
01:26 PM 34.7°F1.5°C 25.9°F-3.4°C 70% 5.4 mph WSW8.7 kmh WSW 11.4 mph18.3 kmh 30.32 in1026.8 mb 0.00 in0.0 mm 0.00 in0.0 mm 0.00 in0.0 mm
01:24 PM 35.1°F1.7°C 25.6°F-3.6°C 68% 2.2 mph WSW3.5 kmh WSW 18.3 mph29.5 kmh 30.31 in1026.4 mb 0.00 in0.0 mm 0.00 in0.0 mm 0.00 in0.0 mm
01:22 PM 35.4°F1.9°C 25.9°F-3.4°C 68% 0.7 mph WSW1.1 kmh WSW 18.3 mph29.5 kmh 30.31 in1026.4 mb 0.00 in0.0 mm 0.00 in0.0 mm 0.00 in0.0 mm
01:20 PM 36.3°F2.4°C 26.4°F-3.1°C 67% 3.8 mph WSW6.1 kmh WSW 18.3 mph29.5 kmh 30.31 in1026.4 mb 0.00 in0.0 mm 0.00 in0.0 mm 0.00 in0.0 mm
01:18 PM 36.9°F2.7°C 26.6°F-3.0°C 66% 2.2 mph W3.5 kmh W 18.3 mph29.5 kmh 30.31 in1026.4 mb 0.00 in0.0 mm 0.00 in0.0 mm 0.00 in0.0 mm
01:16 PM 37.9°F3.3°C 26.9°F-2.8°C 64% 3.8 mph W6.1 kmh W 18.3 mph29.5 kmh 30.31 in1026.4 mb 0.00 in0.0 mm 0.00 in0.0 mm 0.00 in0.0 mm
01:14 PM 38.5°F3.6°C 27.0°F-2.8°C 63% 3.8 mph NW6.1 kmh NW 13.6 mph21.9 kmh 30.30 in1026.1 mb 0.00 in0.0 mm 0.00 in0.0 mm 0.00 in0.0 mm
01:12 PM 38.8°F3.8°C 27.3°F-2.6°C 63% 3.1 mph NW5.0 kmh NW 11.4 mph18.3 kmh 30.30 in1026.1 mb 0.00 in0.0 mm 0.00 in0.0 mm 0.00 in0.0 mm
01:10 PM 38.5°F3.6°C 27.0°F-2.8°C 63% 2.2 mph WNW3.5 kmh WNW 17.4 mph28.0 kmh 30.30 in1026.1 mb 0.00 in0.0 mm 0.00 in0.0 mm 0.00 in0.0 mm
01:08 PM 37.9°F3.3°C 26.5°F-3.1°C 63% 1.6 mph W2.6 kmh W 17.4 mph28.0 kmh 30.30 in1026.1 mb 0.00 in0.0 mm 0.00 in0.0 mm 0.00 in0.0 mm
01:06 PM 37.9°F3.3°C 25.7°F-3.5°C 61% 3.1 mph W5.0 kmh W 17.4 mph28.0 kmh 30.30 in1026.1 mb 0.00 in0.0 mm 0.00 in0.0 mm 0.00 in0.0 mm
01:04 PM 37.9°F3.3°C 25.7°F-3.5°C 61% 3.8 mph WSW6.1 kmh WSW 17.4 mph28.0 kmh 30.30 in1026.1 mb 0.00 in0.0 mm 0.00 in0.0 mm 0.00 in0.0 mm
01:02 PM 38.3°F3.5°C 25.7°F-3.5°C 60% 2.2 mph WSW3.5 kmh WSW 17.4 mph28.0 kmh 30.30 in1026.1 mb 0.00 in0.0 mm 0.00 in0.0 mm 0.00 in0.0 mm
01:00 PM 39.2°F4.0°C 25.7°F-3.5°C 58% 3.8 mph W6.1 kmh W 14.5 mph23.3 kmh 30.30 in1026.1 mb 0.00 in0.0 mm 0.00 in0.0 mm 0.00 in0.0 mm
12:58 PM 39.6°F4.2°C 26.0°F-3.3°C 58% 3.8 mph W6.1 kmh W 14.5 mph23.3 kmh 30.30 in1026.1 mb 0.00 in0.0 mm 0.00 in0.0 mm 0.00 in0.0 mm
12:56 PM 39.7°F4.3°C 27.0°F-2.8°C 60% 1.6 mph W2.6 kmh W 14.5 mph23.3 kmh 30.30 in1026.1 mb 0.00 in0.0 mm 0.00 in0.0 mm 0.00 in0.0 mm
12:54 PM 39.2°F4.0°C 26.5°F-3.1°C 60% 2.2 mph W3.5 kmh W 14.5 mph23.3 kmh 30.30 in1026.1 mb 0.00 in0.0 mm 0.00 in0.0 mm 0.00 in0.0 mm
12:52 PM 38.8°F3.8°C 26.2°F-3.2°C 60% 3.1 mph WNW5.0 kmh WNW 14.5 mph23.3 kmh 30.29 in1025.7 mb 0.00 in0.0 mm 0.00 in0.0 mm 0.00 in0.0 mm
12:50 PM 39.2°F4.0°C 26.5°F-3.1°C 60% 4.5 mph W7.2 kmh W 14.5 mph23.3 kmh 30.30 in1026.1 mb 0.00 in0.0 mm 0.00 in0.0 mm 0.00 in0.0 mm
12:48 PM 39.4°F4.1°C 26.7°F-2.9°C 60% 1.6 mph NW2.6 kmh NW 12.1 mph19.5 kmh 30.29 in1025.7 mb 0.00 in0.0 mm 0.00 in0.0 mm 0.00 in0.0 mm
12:46 PM 39.2°F4.0°C 26.5°F-3.1°C 60% 0.7 mph NW1.1 kmh NW 12.1 mph19.5 kmh 30.30 in1026.1 mb 0.00 in0.0 mm 0.00 in0.0 mm 0.00 in0.0 mm
12:44 PM 39.0°F3.9°C 26.7°F-2.9°C 61% 1.6 mph SW2.6 kmh SW 12.1 mph19.5 kmh 30.30 in1026.1 mb 0.00 in0.0 mm 0.00 in0.0 mm 0.00 in0.0 mm
12:42 PM 38.7°F3.7°C 26.4°F-3.1°C 61% 4.5 mph NW7.2 kmh NW 12.1 mph19.5 kmh 30.30 in1026.1 mb 0.00 in0.0 mm 0.00 in0.0 mm 0.00 in0.0 mm
12:40 PM 37.9°F3.3°C 25.7°F-3.5°C 61% Calm Calm 13.0 mph20.9 kmh 30.30 in1026.1 mb 0.00 in0.0 mm 0.00 in0.0 mm 0.00 in0.0 mm
12:38 PM 37.8°F3.2°C 25.1°F-3.8°C 60% 2.2 mph SW3.5 kmh SW 13.0 mph20.9 kmh 30.30 in1026.1 mb 0.00 in0.0 mm 0.00 in0.0 mm 0.00 in0.0 mm
12:36 PM 38.1°F3.4°C 25.1°F-3.8°C 59% 2.2 mph NW3.5 kmh NW 13.0 mph20.9 kmh 30.30 in1026.1 mb 0.00 in0.0 mm 0.00 in0.0 mm 0.00 in0.0 mm
12:34 PM 38.1°F3.4°C 25.1°F-3.8°C 59% 1.6 mph NW2.6 kmh NW 13.0 mph20.9 kmh 30.30 in1026.1 mb 0.00 in0.0 mm 0.00 in0.0 mm 0.00 in0.0 mm
12:32 PM 38.1°F3.4°C 25.1°F-3.8°C 59% 1.6 mph WNW2.6 kmh WNW 13.0 mph20.9 kmh 30.30 in1026.1 mb 0.00 in0.0 mm 0.00 in0.0 mm 0.00 in0.0 mm
12:30 PM 38.1°F3.4°C 25.1°F-3.8°C 59% 3.8 mph NNW6.1 kmh NNW 13.0 mph20.9 kmh 30.30 in1026.1 mb 0.00 in0.0 mm 0.00 in0.0 mm 0.00 in0.0 mm
12:28 PM 38.1°F3.4°C 25.1°F-3.8°C 59% 3.1 mph NNW5.0 kmh NNW 8.3 mph13.4 kmh 30.30 in1026.1 mb 0.00 in0.0 mm 0.00 in0.0 mm 0.00 in0.0 mm
12:26 PM 37.9°F3.3°C 24.9°F-3.9°C 59% 2.2 mph NW3.5 kmh NW 5.4 mph8.7 kmh 30.30 in1026.1 mb 0.00 in0.0 mm 0.00 in0.0 mm 0.00 in0.0 mm
12:24 PM 38.1°F3.4°C 24.7°F-4.1°C 58% 1.6 mph NNW2.6 kmh NNW 5.4 mph8.7 kmh 30.30 in1026.1 mb 0.00 in0.0 mm 0.00 in0.0 mm 0.00 in0.0 mm
12:22 PM 38.1°F3.4°C 24.7°F-4.1°C 58% 1.6 mph NW2.6 kmh NW 12.1 mph19.5 kmh 30.30 in1026.1 mb 0.00 in0.0 mm 0.00 in0.0 mm 0.00 in0.0 mm
12:20 PM 38.3°F3.5°C 24.4°F-4.2°C 57% Calm Calm 12.1 mph19.5 kmh 30.30 in1026.1 mb 0.00 in0.0 mm 0.00 in0.0 mm 0.00 in0.0 mm
12:18 PM 38.5°F3.6°C 24.2°F-4.3°C 56% 2.2 mph WNW3.5 kmh WNW 12.1 mph19.5 kmh 30.30 in1026.1 mb 0.00 in0.0 mm 0.00 in0.0 mm 0.00 in0.0 mm
12:16 PM 38.5°F3.6°C 23.7°F-4.6°C 55% Calm Calm 12.1 mph19.5 kmh 30.30 in1026.1 mb 0.00 in0.0 mm 0.00 in0.0 mm 0.00 in0.0 mm
12:14 PM 38.3°F3.5°C 23.1°F-4.9°C 54% 0.7 mph WNW1.1 kmh WNW 12.1 mph19.5 kmh 30.30 in1026.1 mb 0.00 in0.0 mm 0.00 in0.0 mm 0.00 in0.0 mm
12:12 PM 38.3°F3.5°C 22.7°F-5.2°C 53% 2.2 mph W3.5 kmh W 12.1 mph19.5 kmh 30.30 in1026.1 mb 0.00 in0.0 mm 0.00 in0.0 mm 0.00 in0.0 mm
12:10 PM 38.3°F3.5°C 22.7°F-5.2°C 53% 2.2 mph WSW3.5 kmh WSW 11.4 mph18.3 kmh 30.30 in1026.1 mb 0.00 in0.0 mm 0.00 in0.0 mm 0.00 in0.0 mm
12:08 PM 38.5°F3.6°C 22.9°F-5.1°C 53% 1.6 mph W2.6 kmh W 9.8 mph15.8 kmh 30.30 in1026.1 mb 0.00 in0.0 mm 0.00 in0.0 mm 0.00 in0.0 mm
12:06 PM 38.7°F3.7°C 23.0°F-5.0°C 53% 1.6 mph W2.6 kmh W 8.3 mph13.4 kmh 30.30 in1026.1 mb 0.00 in0.0 mm 0.00 in0.0 mm 0.00 in0.0 mm
12:04 PM 38.7°F3.7°C 23.0°F-5.0°C 53% 1.6 mph NW2.6 kmh NW 8.3 mph13.4 kmh 30.30 in1026.1 mb 0.00 in0.0 mm 0.00 in0.0 mm 0.00 in0.0 mm
12:02 PM 38.7°F3.7°C 23.5°F-4.7°C 54% 0.7 mph N1.1 kmh N 10.7 mph17.2 kmh 30.30 in1026.1 mb 0.00 in0.0 mm 0.00 in0.0 mm 0.00 in0.0 mm
12:00 PM 38.3°F3.5°C 23.1°F-4.9°C 54% 1.6 mph N2.6 kmh N 10.7 mph17.2 kmh 30.30 in1026.1 mb 0.00 in0.0 mm 0.00 in0.0 mm 0.00 in0.0 mm
11:58 AM 37.9°F3.3°C 22.8°F-5.1°C 54% 0.7 mph NNE1.1 kmh NNE 10.7 mph17.2 kmh 30.30 in1026.1 mb 0.00 in0.0 mm 0.00 in0.0 mm 0.00 in0.0 mm
11:56 AM 37.9°F3.3°C 22.4°F-5.3°C 53% 2.2 mph NNE3.5 kmh NNE 10.7 mph17.2 kmh 30.30 in1026.1 mb 0.00 in0.0 mm 0.00 in0.0 mm 0.00 in0.0 mm
11:54 AM 38.1°F3.4°C 22.1°F-5.5°C 52% 3.1 mph NE5.0 kmh NE 10.7 mph17.2 kmh 30.30 in1026.1 mb 0.00 in0.0 mm 0.00 in0.0 mm 0.00 in0.0 mm
11:52 AM 38.5°F3.6°C 22.9°F-5.1°C 53% 0.7 mph NNE1.1 kmh NNE 8.3 mph13.4 kmh 30.30 in1026.1 mb 0.00 in0.0 mm 0.00 in0.0 mm 0.00 in0.0 mm
11:50 AM 38.7°F3.7°C 24.3°F-4.3°C 56% 0.7 mph NW1.1 kmh NW 8.3 mph13.4 kmh 30.30 in1026.1 mb 0.00 in0.0 mm 0.00 in0.0 mm 0.00 in0.0 mm
11:48 AM 38.3°F3.5°C 24.0°F-4.4°C 56% 1.6 mph NW2.6 kmh NW 8.3 mph13.4 kmh 30.30 in1026.1 mb 0.00 in0.0 mm 0.00 in0.0 mm 0.00 in0.0 mm
11:46 AM 37.9°F3.3°C 23.7°F-4.6°C 56% 3.1 mph NW5.0 kmh NW 8.3 mph13.4 kmh 30.30 in1026.1 mb 0.00 in0.0 mm 0.00 in0.0 mm 0.00 in0.0 mm
11:44 AM 37.4°F3.0°C 23.6°F-4.7°C 57% 1.6 mph NW2.6 kmh NW 7.6 mph12.2 kmh 30.30 in1026.1 mb 0.00 in0.0 mm 0.00 in0.0 mm 0.00 in0.0 mm
11:42 AM 37.0°F2.8°C 23.7°F-4.6°C 58% 0.7 mph NW1.1 kmh NW 7.6 mph12.2 kmh 30.30 in1026.1 mb 0.00 in0.0 mm 0.00 in0.0 mm 0.00 in0.0 mm
11:40 AM 36.7°F2.6°C 23.7°F-4.6°C 59% Calm Calm 7.6 mph12.2 kmh 30.30 in1026.1 mb 0.00 in0.0 mm 0.00 in0.0 mm 0.00 in0.0 mm
11:38 AM 36.3°F2.4°C 23.0°F-5.0°C 58% 1.6 mph NW2.6 kmh NW 7.6 mph12.2 kmh 30.29 in1025.7 mb 0.00 in0.0 mm 0.00 in0.0 mm 0.00 in0.0 mm
11:36 AM 35.4°F1.9°C 22.5°F-5.3°C 59% 0.7 mph NW1.1 kmh NW 7.6 mph12.2 kmh 30.30 in1026.1 mb 0.00 in0.0 mm 0.00 in0.0 mm 0.00 in0.0 mm
11:34 AM 35.4°F1.9°C 22.5°F-5.3°C 59% 0.7 mph NW1.1 kmh NW 12.1 mph19.5 kmh 30.30 in1026.1 mb 0.00 in0.0 mm 0.00 in0.0 mm 0.00 in0.0 mm
11:32 AM 35.2°F1.8°C 22.0°F-5.6°C 58% 0.7 mph NNW1.1 kmh NNW 13.0 mph20.9 kmh 30.30 in1026.1 mb 0.00 in0.0 mm 0.00 in0.0 mm 0.00 in0.0 mm
11:30 AM 35.2°F1.8°C 22.0°F-5.6°C 58% Calm Calm 13.0 mph20.9 kmh 30.30 in1026.1 mb 0.00 in0.0 mm 0.00 in0.0 mm 0.00 in0.0 mm
11:28 AM 35.2°F1.8°C 21.6°F-5.8°C 57% 0.7 mph NNE1.1 kmh NNE 13.0 mph20.9 kmh 30.30 in1026.1 mb 0.00 in0.0 mm 0.00 in0.0 mm 0.00 in0.0 mm
11:26 AM 35.2°F1.8°C 21.6°F-5.8°C 57% 1.6 mph NNE2.6 kmh NNE 13.0 mph20.9 kmh 30.29 in1025.7 mb 0.00 in0.0 mm 0.00 in0.0 mm 0.00 in0.0 mm
11:24 AM 35.4°F1.9°C 22.1°F-5.5°C 58% 1.6 mph W2.6 kmh W 15.2 mph24.5 kmh 30.29 in1025.7 mb 0.00 in0.0 mm 0.00 in0.0 mm 0.00 in0.0 mm
11:22 AM 35.4°F1.9°C 22.1°F-5.5°C 58% 0.7 mph WSW1.1 kmh WSW 15.2 mph24.5 kmh 30.29 in1025.7 mb 0.00 in0.0 mm 0.00 in0.0 mm 0.00 in0.0 mm
11:20 AM 35.4°F1.9°C 22.1°F-5.5°C 58% 0.7 mph WSW1.1 kmh WSW 15.2 mph24.5 kmh 30.29 in1025.7 mb 0.00 in0.0 mm 0.00 in0.0 mm 0.00 in0.0 mm
11:18 AM 35.4°F1.9°C 22.1°F-5.5°C 58% 1.6 mph W2.6 kmh W 15.2 mph24.5 kmh 30.29 in1025.7 mb 0.00 in0.0 mm 0.00 in0.0 mm 0.00 in0.0 mm
11:16 AM 35.4°F1.9°C 22.1°F-5.5°C 58% 2.2 mph WSW3.5 kmh WSW 15.2 mph24.5 kmh 30.29 in1025.7 mb 0.00 in0.0 mm 0.00 in0.0 mm 0.00 in0.0 mm
11:14 AM 35.4°F1.9°C 22.1°F-5.5°C 58% 2.2 mph NW3.5 kmh NW 8.3 mph13.4 kmh 30.29 in1025.7 mb 0.00 in0.0 mm 0.00 in0.0 mm 0.00 in0.0 mm
11:12 AM 35.4°F1.9°C 22.5°F-5.3°C 59% 0.7 mph SW1.1 kmh SW 14.5 mph23.3 kmh 30.29 in1025.7 mb 0.00 in0.0 mm 0.00 in0.0 mm 0.00 in0.0 mm
11:10 AM 35.4°F1.9°C 22.5°F-5.3°C 59% Calm Calm 14.5 mph23.3 kmh 30.29 in1025.7 mb 0.00 in0.0 mm 0.00 in0.0 mm 0.00 in0.0 mm
11:08 AM 35.2°F1.8°C 22.0°F-5.6°C 58% 3.1 mph SW5.0 kmh SW 14.5 mph23.3 kmh 30.29 in1025.7 mb 0.00 in0.0 mm 0.00 in0.0 mm 0.00 in0.0 mm
11:06 AM 35.2°F1.8°C 22.4°F-5.3°C 59% 0.7 mph SW1.1 kmh SW 14.5 mph23.3 kmh 30.30 in1026.1 mb 0.00 in0.0 mm 0.00 in0.0 mm 0.00 in0.0 mm
11:04 AM 35.2°F1.8°C 22.0°F-5.6°C 58% 0.7 mph SW1.1 kmh SW 14.5 mph23.3 kmh 30.29 in1025.7 mb 0.00 in0.0 mm 0.00 in0.0 mm 0.00 in0.0 mm
11:02 AM 35.2°F1.8°C 22.0°F-5.6°C 58% 3.8 mph WSW6.1 kmh WSW 14.5 mph23.3 kmh 30.29 in1025.7 mb 0.00 in0.0 mm 0.00 in0.0 mm 0.00 in0.0 mm
11:00 AM 35.1°F1.7°C 21.8°F-5.7°C 58% 3.1 mph SW5.0 kmh SW 12.1 mph19.5 kmh 30.30 in1026.1 mb 0.00 in0.0 mm 0.00 in0.0 mm 0.00 in0.0 mm
10:58 AM 35.1°F1.7°C 21.8°F-5.7°C 58% 2.2 mph S3.5 kmh S 12.1 mph19.5 kmh 30.29 in1025.7 mb 0.00 in0.0 mm 0.00 in0.0 mm 0.00 in0.0 mm
10:56 AM 35.1°F1.7°C 21.8°F-5.7°C 58% 2.2 mph S3.5 kmh S 12.1 mph19.5 kmh 30.30 in1026.1 mb 0.00 in0.0 mm 0.00 in0.0 mm 0.00 in0.0 mm
10:54 AM 35.1°F1.7°C 21.8°F-5.7°C 58% 3.1 mph E5.0 kmh E 12.1 mph19.5 kmh 30.29 in1025.7 mb 0.00 in0.0 mm 0.00 in0.0 mm 0.00 in0.0 mm
10:52 AM 35.2°F1.8°C 22.0°F-5.6°C 58% 1.6 mph E2.6 kmh E 12.1 mph19.5 kmh 30.29 in1025.7 mb 0.00 in0.0 mm 0.00 in0.0 mm 0.00 in0.0 mm
10:50 AM 35.2°F1.8°C 22.4°F-5.3°C 59% 3.1 mph N5.0 kmh N 12.1 mph19.5 kmh 30.29 in1025.7 mb 0.00 in0.0 mm 0.00 in0.0 mm 0.00 in0.0 mm
10:48 AM 35.2°F1.8°C 22.4°F-5.3°C 59% 3.1 mph N5.0 kmh N 9.8 mph15.8 kmh 30.29 in1025.7 mb 0.00 in0.0 mm 0.00 in0.0 mm 0.00 in0.0 mm
10:46 AM 35.1°F1.7°C 22.2°F-5.4°C 59% 2.2 mph NNW3.5 kmh NNW 9.8 mph15.8 kmh 30.29 in1025.7 mb 0.00 in0.0 mm 0.00 in0.0 mm 0.00 in0.0 mm
10:44 AM 35.1°F1.7°C 22.2°F-5.4°C 59% 1.6 mph N2.6 kmh N 9.8 mph15.8 kmh 30.29 in1025.7 mb 0.00 in0.0 mm 0.00 in0.0 mm 0.00 in0.0 mm
10:42 AM 35.1°F1.7°C 22.2°F-5.4°C 59% 3.8 mph N6.1 kmh N 9.8 mph15.8 kmh 30.29 in1025.7 mb 0.00 in0.0 mm 0.00 in0.0 mm 0.00 in0.0 mm
10:40 AM 34.9°F1.6°C 22.0°F-5.6°C 59% 3.1 mph N5.0 kmh N 12.1 mph19.5 kmh 30.29 in1025.7 mb 0.00 in0.0 mm 0.00 in0.0 mm 0.00 in0.0 mm
10:38 AM 34.9°F1.6°C 22.0°F-5.6°C 59% 1.6 mph N2.6 kmh N 16.8 mph27.0 kmh 30.28 in1025.4 mb 0.00 in0.0 mm 0.00 in0.0 mm 0.00 in0.0 mm
10:36 AM 35.1°F1.7°C 22.2°F-5.4°C 59% 3.1 mph N5.0 kmh N 16.8 mph27.0 kmh 30.29 in1025.7 mb 0.00 in0.0 mm 0.00 in0.0 mm 0.00 in0.0 mm
10:34 AM 35.1°F1.7°C 22.2°F-5.4°C 59% 3.1 mph NNE5.0 kmh NNE 16.8 mph27.0 kmh 30.29 in1025.7 mb 0.00 in0.0 mm 0.00 in0.0 mm 0.00 in0.0 mm
10:32 AM 35.2°F1.8°C 22.4°F-5.3°C 59% 2.2 mph N3.5 kmh N 16.8 mph27.0 kmh 30.29 in1025.7 mb 0.00 in0.0 mm 0.00 in0.0 mm 0.00 in0.0 mm
10:30 AM 35.4°F1.9°C 22.5°F-5.3°C 59% 3.8 mph N6.1 kmh N 16.8 mph27.0 kmh 30.29 in1025.7 mb 0.00 in0.0 mm 0.00 in0.0 mm 0.00 in0.0 mm
10:28 AM 35.8°F2.1°C 23.3°F-4.8°C 60% 2.2 mph N3.5 kmh N 9.2 mph14.8 kmh 30.28 in1025.4 mb 0.00 in0.0 mm 0.00 in0.0 mm 0.00 in0.0 mm
10:26 AM 36.0°F2.2°C 23.4°F-4.8°C 60% 3.1 mph NNW5.0 kmh NNW 13.0 mph20.9 kmh 30.28 in1025.4 mb 0.00 in0.0 mm 0.00 in0.0 mm 0.00 in0.0 mm
10:24 AM 36.3°F2.4°C 24.2°F-4.3°C 61% 3.8 mph NW6.1 kmh NW 13.0 mph20.9 kmh 30.28 in1025.4 mb 0.00 in0.0 mm 0.00 in0.0 mm 0.00 in0.0 mm
10:22 AM 36.5°F2.5°C 24.4°F-4.2°C 61% 1.6 mph NW2.6 kmh NW 13.0 mph20.9 kmh 30.28 in1025.4 mb 0.00 in0.0 mm 0.00 in0.0 mm 0.00 in0.0 mm
10:20 AM 36.0°F2.2°C 23.8°F-4.6°C 61% 1.6 mph W2.6 kmh W 15.9 mph25.6 kmh 30.28 in1025.4 mb 0.00 in0.0 mm 0.00 in0.0 mm 0.00 in0.0 mm
10:18 AM 36.0°F2.2°C 23.8°F-4.6°C 61% 4.5 mph WSW7.2 kmh WSW 15.9 mph25.6 kmh 30.28 in1025.4 mb 0.00 in0.0 mm 0.00 in0.0 mm 0.00 in0.0 mm
10:16 AM 35.6°F2.0°C 23.9°F-4.5°C 62% 0.7 mph SW1.1 kmh SW 15.9 mph25.6 kmh 30.28 in1025.4 mb 0.00 in0.0 mm 0.00 in0.0 mm 0.00 in0.0 mm
10:14 AM 35.6°F2.0°C 23.9°F-4.5°C 62% 2.2 mph SW3.5 kmh SW 15.9 mph25.6 kmh 30.28 in1025.4 mb 0.00 in0.0 mm 0.00 in0.0 mm 0.00 in0.0 mm
10:12 AM 35.6°F2.0°C 23.9°F-4.5°C 62% 2.2 mph SW3.5 kmh SW 15.9 mph25.6 kmh 30.28 in1025.4 mb 0.00 in0.0 mm 0.00 in0.0 mm 0.00 in0.0 mm
10:10 AM 35.6°F2.0°C 24.3°F-4.3°C 63% 5.4 mph SW8.7 kmh SW 15.9 mph25.6 kmh 30.27 in1025.1 mb 0.00 in0.0 mm 0.00 in0.0 mm 0.00 in0.0 mm
10:08 AM 35.4°F1.9°C 24.5°F-4.2°C 64% 3.8 mph SSW6.1 kmh SSW 15.2 mph24.5 kmh 30.27 in1025.1 mb 0.00 in0.0 mm 0.00 in0.0 mm 0.00 in0.0 mm
10:06 AM 35.2°F1.8°C 24.3°F-4.3°C 64% 3.1 mph SW5.0 kmh SW 15.2 mph24.5 kmh 30.28 in1025.4 mb 0.00 in0.0 mm 0.00 in0.0 mm 0.00 in0.0 mm
10:04 AM 35.1°F1.7°C 24.5°F-4.2°C 65% 1.6 mph WSW2.6 kmh WSW 15.2 mph24.5 kmh 30.27 in1025.1 mb 0.00 in0.0 mm 0.00 in0.0 mm 0.00 in0.0 mm
10:02 AM 35.1°F1.7°C 24.1°F-4.4°C 64% 1.6 mph WSW2.6 kmh WSW 15.2 mph24.5 kmh 30.27 in1025.1 mb 0.00 in0.0 mm 0.00 in0.0 mm 0.00 in0.0 mm
10:00 AM 35.4°F1.9°C 24.8°F-4.0°C 65% 4.5 mph W7.2 kmh W 15.2 mph24.5 kmh 30.27 in1025.1 mb 0.00 in0.0 mm 0.00 in0.0 mm 0.00 in0.0 mm
09:58 AM 35.4°F1.9°C 24.8°F-4.0°C 65% 2.2 mph NW3.5 kmh NW 11.4 mph18.3 kmh 30.27 in1025.1 mb 0.00 in0.0 mm 0.00 in0.0 mm 0.00 in0.0 mm
09:56 AM 35.8°F2.1°C 25.6°F-3.6°C 66% 3.1 mph NW5.0 kmh NW 10.7 mph17.2 kmh 30.27 in1025.1 mb 0.00 in0.0 mm 0.00 in0.0 mm 0.00 in0.0 mm
09:54 AM 35.8°F2.1°C 25.6°F-3.6°C 66% 0.7 mph NW1.1 kmh NW 13.6 mph21.9 kmh 30.27 in1025.1 mb 0.00 in0.0 mm 0.00 in0.0 mm 0.00 in0.0 mm
09:52 AM 35.8°F2.1°C 25.9°F-3.4°C 67% 1.6 mph NW2.6 kmh NW 13.6 mph21.9 kmh 30.27 in1025.1 mb 0.00 in0.0 mm 0.00 in0.0 mm 0.00 in0.0 mm
09:50 AM 35.8°F2.1°C 25.6°F-3.6°C 66% 2.2 mph WNW3.5 kmh WNW 13.6 mph21.9 kmh 30.27 in1025.1 mb 0.00 in0.0 mm 0.00 in0.0 mm 0.00 in0.0 mm
09:48 AM 35.8°F2.1°C 25.9°F-3.4°C 67% 2.2 mph W3.5 kmh W 13.6 mph21.9 kmh 30.27 in1025.1 mb 0.00 in0.0 mm 0.00 in0.0 mm 0.00 in0.0 mm
09:46 AM 35.6°F2.0°C 25.7°F-3.5°C 67% 2.2 mph W3.5 kmh W 13.6 mph21.9 kmh 30.27 in1025.1 mb 0.00 in0.0 mm 0.00 in0.0 mm 0.00 in0.0 mm
09:44 AM 35.1°F1.7°C 25.9°F-3.4°C 69% 3.1 mph WNW5.0 kmh WNW 12.1 mph19.5 kmh 30.27 in1025.1 mb 0.00 in0.0 mm 0.00 in0.0 mm 0.00 in0.0 mm
09:42 AM 34.5°F1.4°C 25.4°F-3.7°C 69% 3.8 mph NW6.1 kmh NW 12.1 mph19.5 kmh 30.27 in1025.1 mb 0.00 in0.0 mm 0.00 in0.0 mm 0.00 in0.0 mm
09:40 AM 34.0°F1.1°C 25.2°F-3.8°C 70% 1.6 mph NW2.6 kmh NW 7.6 mph12.2 kmh 30.27 in1025.1 mb 0.00 in0.0 mm 0.00 in0.0 mm 0.00 in0.0 mm
09:38 AM 34.0°F1.1°C 25.2°F-3.8°C 70% 1.6 mph NW2.6 kmh NW 7.6 mph12.2 kmh 30.26 in1024.7 mb 0.00 in0.0 mm 0.00 in0.0 mm 0.00 in0.0 mm
09:36 AM 34.0°F1.1°C 25.6°F-3.6°C 71% 1.6 mph NW2.6 kmh NW 7.6 mph12.2 kmh 30.26 in1024.7 mb 0.00 in0.0 mm 0.00 in0.0 mm 0.00 in0.0 mm
09:34 AM 34.0°F1.1°C 25.9°F-3.4°C 72% 2.2 mph NW3.5 kmh NW 9.2 mph14.8 kmh 30.26 in1024.7 mb 0.00 in0.0 mm 0.00 in0.0 mm 0.00 in0.0 mm
09:32 AM 33.8°F1.0°C 25.8°F-3.4°C 72% 2.2 mph WNW3.5 kmh WNW 9.2 mph14.8 kmh 30.26 in1024.7 mb 0.00 in0.0 mm 0.00 in0.0 mm 0.00 in0.0 mm
09:30 AM 33.8°F1.0°C 26.1°F-3.3°C 73% 2.2 mph W3.5 kmh W 9.2 mph14.8 kmh 30.26 in1024.7 mb 0.00 in0.0 mm 0.00 in0.0 mm 0.00 in0.0 mm
09:28 AM 33.6°F0.9°C 25.9°F-3.4°C 73% 0.7 mph W1.1 kmh W 9.2 mph14.8 kmh 30.26 in1024.7 mb 0.00 in0.0 mm 0.00 in0.0 mm 0.00 in0.0 mm
09:26 AM 33.6°F0.9°C 25.9°F-3.4°C 73% 1.6 mph W2.6 kmh W 9.2 mph14.8 kmh 30.26 in1024.7 mb 0.00 in0.0 mm 0.00 in0.0 mm 0.00 in0.0 mm
09:24 AM 33.6°F0.9°C 25.9°F-3.4°C 73% 3.8 mph W6.1 kmh W 9.2 mph14.8 kmh 30.26 in1024.7 mb 0.00 in0.0 mm 0.00 in0.0 mm 0.00 in0.0 mm
09:22 AM 33.6°F0.9°C 26.2°F-3.2°C 74% 1.6 mph W2.6 kmh W 9.2 mph14.8 kmh 30.26 in1024.7 mb 0.00 in0.0 mm 0.00 in0.0 mm 0.00 in0.0 mm
09:20 AM 33.6°F0.9°C 26.6°F-3.0°C 75% 0.7 mph W1.1 kmh W 9.2 mph14.8 kmh 30.26 in1024.7 mb 0.00 in0.0 mm 0.00 in0.0 mm 0.00 in0.0 mm
09:18 AM 33.6°F0.9°C 26.6°F-3.0°C 75% 0.7 mph W1.1 kmh W 9.2 mph14.8 kmh 30.26 in1024.7 mb 0.00 in0.0 mm 0.00 in0.0 mm 0.00 in0.0 mm
09:16 AM 33.4°F0.8°C 26.4°F-3.1°C 75% Calm Calm 9.2 mph14.8 kmh 30.26 in1024.7 mb 0.00 in0.0 mm 0.00 in0.0 mm 0.00 in0.0 mm
09:14 AM 33.4°F0.8°C 26.4°F-3.1°C 75% 1.6 mph WSW2.6 kmh WSW 14.5 mph23.3 kmh 30.26 in1024.7 mb 0.00 in0.0 mm 0.00 in0.0 mm 0.00 in0.0 mm
09:12 AM 33.4°F0.8°C 26.4°F-3.1°C 75% 2.2 mph WSW3.5 kmh WSW 14.5 mph23.3 kmh 30.26 in1024.7 mb 0.00 in0.0 mm 0.00 in0.0 mm 0.00 in0.0 mm
09:10 AM 33.3°F0.7°C 26.2°F-3.2°C 75% 3.1 mph W5.0 kmh W 14.5 mph23.3 kmh 30.26 in1024.7 mb 0.00 in0.0 mm 0.00 in0.0 mm 0.00 in0.0 mm
09:08 AM 33.3°F0.7°C 26.5°F-3.1°C 76% 1.6 mph W2.6 kmh W 14.5 mph23.3 kmh 30.26 in1024.7 mb 0.00 in0.0 mm 0.00 in0.0 mm 0.00 in0.0 mm
09:06 AM 33.3°F0.7°C 26.2°F-3.2°C 75% Calm Calm 14.5 mph23.3 kmh 30.25 in1024.4 mb 0.00 in0.0 mm 0.00 in0.0 mm 0.00 in0.0 mm
09:04 AM 33.1°F0.6°C 26.0°F-3.3°C 75% 7.6 mph WNW12.2 kmh WNW 14.5 mph23.3 kmh 30.25 in1024.4 mb 0.00 in0.0 mm 0.00 in0.0 mm 0.00 in0.0 mm
09:02 AM 33.1°F0.6°C 26.4°F-3.1°C 76% 3.1 mph WNW5.0 kmh WNW 12.1 mph19.5 kmh 30.25 in1024.4 mb 0.00 in0.0 mm 0.00 in0.0 mm 0.00 in0.0 mm
09:00 AM 33.1°F0.6°C 26.4°F-3.1°C 76% 1.6 mph NW2.6 kmh NW 12.1 mph19.5 kmh 30.25 in1024.4 mb 0.00 in0.0 mm 0.00 in0.0 mm 0.00 in0.0 mm
08:58 AM 33.1°F0.6°C 26.4°F-3.1°C 76% 3.8 mph NNW6.1 kmh NNW 12.1 mph19.5 kmh 30.25 in1024.4 mb 0.00 in0.0 mm 0.00 in0.0 mm 0.00 in0.0 mm
08:56 AM 33.1°F0.6°C 26.7°F-2.9°C 77% 1.6 mph NNW2.6 kmh NNW 8.3 mph13.4 kmh 30.25 in1024.4 mb 0.00 in0.0 mm 0.00 in0.0 mm 0.00 in0.0 mm
08:54 AM 33.1°F0.6°C 26.7°F-2.9°C 77% 1.6 mph NW2.6 kmh NW 9.2 mph14.8 kmh 30.25 in1024.4 mb 0.00 in0.0 mm 0.00 in0.0 mm 0.00 in0.0 mm
08:52 AM 32.9°F0.5°C 26.5°F-3.1°C 77% 3.8 mph WNW6.1 kmh WNW 9.2 mph14.8 kmh 30.25 in1024.4 mb 0.00 in0.0 mm 0.00 in0.0 mm 0.00 in0.0 mm
08:50 AM 32.9°F0.5°C 26.8°F-2.9°C 78% 2.2 mph WNW3.5 kmh WNW 9.2 mph14.8 kmh 30.24 in1024.0 mb 0.00 in0.0 mm 0.00 in0.0 mm 0.00 in0.0 mm
08:48 AM 32.9°F0.5°C 26.8°F-2.9°C 78% 1.6 mph W2.6 kmh W 9.2 mph14.8 kmh 30.25 in1024.4 mb 0.00 in0.0 mm 0.00 in0.0 mm 0.00 in0.0 mm
08:46 AM 32.9°F0.5°C 26.8°F-2.9°C 78% 1.6 mph W2.6 kmh W 9.2 mph14.8 kmh 30.25 in1024.4 mb 0.00 in0.0 mm 0.00 in0.0 mm 0.00 in0.0 mm
08:44 AM 32.9°F0.5°C 26.8°F-2.9°C 78% 3.8 mph W6.1 kmh W 9.2 mph14.8 kmh 30.25 in1024.4 mb 0.00 in0.0 mm 0.00 in0.0 mm 0.00 in0.0 mm
08:42 AM 32.9°F0.5°C 26.8°F-2.9°C 78% 3.1 mph W5.0 kmh W 9.8 mph15.8 kmh 30.24 in1024.0 mb 0.00 in0.0 mm 0.00 in0.0 mm 0.00 in0.0 mm
08:40 AM 32.9°F0.5°C 26.8°F-2.9°C 78% 0.7 mph W1.1 kmh W 9.8 mph15.8 kmh 30.24 in1024.0 mb 0.00 in0.0 mm 0.00 in0.0 mm 0.00 in0.0 mm
08:38 AM 32.7°F0.4°C 26.6°F-3.0°C 78% 2.2 mph W3.5 kmh W 9.8 mph15.8 kmh 30.25 in1024.4 mb 0.00 in0.0 mm 0.00 in0.0 mm 0.00 in0.0 mm
08:36 AM 32.7°F0.4°C 26.6°F-3.0°C 78% 2.2 mph W3.5 kmh W 9.8 mph15.8 kmh 30.25 in1024.4 mb 0.00 in0.0 mm 0.00 in0.0 mm 0.00 in0.0 mm
08:34 AM 32.7°F0.4°C 26.6°F-3.0°C 78% 1.6 mph WNW2.6 kmh WNW 14.5 mph23.3 kmh 30.25 in1024.4 mb 0.00 in0.0 mm 0.00 in0.0 mm 0.00 in0.0 mm
08:32 AM 32.5°F0.3°C 26.8°F-2.9°C 79% 2.2 mph WNW3.5 kmh WNW 14.5 mph23.3 kmh 30.24 in1024.0 mb 0.00 in0.0 mm 0.00 in0.0 mm 0.00 in0.0 mm
08:30 AM 32.4°F0.2°C 26.6°F-3.0°C 79% Calm Calm 14.5 mph23.3 kmh 30.24 in1024.0 mb 0.00 in0.0 mm 0.00 in0.0 mm 0.00 in0.0 mm
08:28 AM 32.2°F0.1°C 26.4°F-3.1°C 79% 2.2 mph W3.5 kmh W 14.5 mph23.3 kmh 30.24 in1024.0 mb 0.00 in0.0 mm 0.00 in0.0 mm 0.00 in0.0 mm
08:26 AM 32.2°F0.1°C 26.1°F-3.3°C 78% 2.2 mph W3.5 kmh W 14.5 mph23.3 kmh 30.24 in1024.0 mb 0.00 in0.0 mm 0.00 in0.0 mm 0.00 in0.0 mm
08:24 AM 32.2°F0.1°C 26.4°F-3.1°C 79% Calm Calm 10.7 mph17.2 kmh 30.24 in1024.0 mb 0.00 in0.0 mm 0.00 in0.0 mm 0.00 in0.0 mm
08:22 AM 32.2°F0.1°C 26.4°F-3.1°C 79% 3.1 mph WSW5.0 kmh WSW 10.7 mph17.2 kmh 30.24 in1024.0 mb 0.00 in0.0 mm 0.00 in0.0 mm 0.00 in0.0 mm
08:20 AM 32.2°F0.1°C 26.4°F-3.1°C 79% 1.6 mph W2.6 kmh W 10.7 mph17.2 kmh 30.24 in1024.0 mb 0.00 in0.0 mm 0.00 in0.0 mm 0.00 in0.0 mm
08:18 AM 32.2°F0.1°C 26.4°F-3.1°C 79% 2.2 mph WSW3.5 kmh WSW 10.7 mph17.2 kmh 30.23 in1023.7 mb 0.00 in0.0 mm 0.00 in0.0 mm 0.00 in0.0 mm
08:16 AM 32.2°F0.1°C 26.4°F-3.1°C 79% 1.6 mph W2.6 kmh W 9.2 mph14.8 kmh 30.23 in1023.7 mb 0.00 in0.0 mm 0.00 in0.0 mm 0.00 in0.0 mm
08:14 AM 32.0°F0.0°C 26.2°F-3.2°C 79% 0.7 mph WNW1.1 kmh WNW 9.2 mph14.8 kmh 30.24 in1024.0 mb 0.00 in0.0 mm 0.00 in0.0 mm 0.00 in0.0 mm
08:12 AM 32.0°F0.0°C 26.6°F-3.0°C 80% 1.6 mph WNW2.6 kmh WNW 9.2 mph14.8 kmh 30.24 in1024.0 mb 0.00 in0.0 mm 0.00 in0.0 mm 0.00 in0.0 mm
08:10 AM 32.0°F0.0°C 26.6°F-3.0°C 80% 1.6 mph W2.6 kmh W 9.2 mph14.8 kmh 30.23 in1023.7 mb 0.00 in0.0 mm 0.00 in0.0 mm 0.00 in0.0 mm
08:08 AM 32.0°F0.0°C 26.2°F-3.2°C 79% 0.7 mph WNW1.1 kmh WNW 9.2 mph14.8 kmh 30.23 in1023.7 mb 0.00 in0.0 mm 0.00 in0.0 mm 0.00 in0.0 mm
08:06 AM 32.0°F0.0°C 26.2°F-3.2°C 79% 0.7 mph WNW1.1 kmh WNW 9.8 mph15.8 kmh 30.23 in1023.7 mb 0.00 in0.0 mm 0.00 in0.0 mm 0.00 in0.0 mm
08:04 AM 32.0°F0.0°C 26.2°F-3.2°C 79% 3.1 mph WNW5.0 kmh WNW 9.8 mph15.8 kmh 30.23 in1023.7 mb 0.00 in0.0 mm 0.00 in0.0 mm 0.00 in0.0 mm
08:02 AM 31.8°F-0.1°C 26.4°F-3.1°C 80% 3.1 mph WNW5.0 kmh WNW 9.8 mph15.8 kmh 30.23 in1023.7 mb 0.00 in0.0 mm 0.00 in0.0 mm 0.00 in0.0 mm
08:00 AM 31.8°F-0.1°C 26.4°F-3.1°C 80% 1.6 mph WNW2.6 kmh WNW 9.8 mph15.8 kmh 30.23 in1023.7 mb 0.00 in0.0 mm 0.00 in0.0 mm 0.00 in0.0 mm
07:58 AM 31.6°F-0.2°C 26.2°F-3.2°C 80% 3.1 mph W5.0 kmh W 9.8 mph15.8 kmh 30.22 in1023.4 mb 0.00 in0.0 mm 0.00 in0.0 mm 0.00 in0.0 mm
07:56 AM 31.6°F-0.2°C 26.2°F-3.2°C 80% 3.1 mph WSW5.0 kmh WSW 8.3 mph13.4 kmh 30.22 in1023.4 mb 0.00 in0.0 mm 0.00 in0.0 mm 0.00 in0.0 mm
07:54 AM 31.6°F-0.2°C 26.2°F-3.2°C 80% 0.7 mph WSW1.1 kmh WSW 14.5 mph23.3 kmh 30.22 in1023.4 mb 0.00 in0.0 mm 0.00 in0.0 mm 0.00 in0.0 mm
07:52 AM 31.6°F-0.2°C 26.2°F-3.2°C 80% Calm Calm 14.5 mph23.3 kmh 30.22 in1023.4 mb 0.00 in0.0 mm 0.00 in0.0 mm 0.00 in0.0 mm
07:50 AM 31.6°F-0.2°C 26.5°F-3.1°C 81% 1.6 mph WSW2.6 kmh WSW 14.5 mph23.3 kmh 30.22 in1023.4 mb 0.00 in0.0 mm 0.00 in0.0 mm 0.00 in0.0 mm
07:48 AM 31.6°F-0.2°C 26.2°F-3.2°C 80% 1.6 mph WSW2.6 kmh WSW 14.5 mph23.3 kmh 30.22 in1023.4 mb 0.00 in0.0 mm 0.00 in0.0 mm 0.00 in0.0 mm
07:46 AM 31.5°F-0.3°C 26.0°F-3.3°C 80% 2.2 mph WSW3.5 kmh WSW 14.5 mph23.3 kmh 30.22 in1023.4 mb 0.00 in0.0 mm 0.00 in0.0 mm 0.00 in0.0 mm
07:44 AM 31.5°F-0.3°C 26.0°F-3.3°C 80% 0.7 mph WSW1.1 kmh WSW 9.2 mph14.8 kmh 30.22 in1023.4 mb 0.00 in0.0 mm 0.00 in0.0 mm 0.00 in0.0 mm
07:42 AM 31.5°F-0.3°C 26.0°F-3.3°C 80% 1.6 mph WSW2.6 kmh WSW 12.1 mph19.5 kmh 30.22 in1023.4 mb 0.00 in0.0 mm 0.00 in0.0 mm 0.00 in0.0 mm
07:40 AM 31.3°F-0.4°C 25.8°F-3.4°C 80% 2.2 mph WSW3.5 kmh WSW 12.1 mph19.5 kmh 30.22 in1023.4 mb 0.00 in0.0 mm 0.00 in0.0 mm 0.00 in0.0 mm
07:38 AM 31.1°F-0.5°C 26.0°F-3.3°C 81% 2.2 mph W3.5 kmh W 12.1 mph19.5 kmh 30.22 in1023.4 mb 0.00 in0.0 mm 0.00 in0.0 mm 0.00 in0.0 mm
07:36 AM 31.1°F-0.5°C 26.0°F-3.3°C 81% 0.7 mph W1.1 kmh W 12.1 mph19.5 kmh 30.22 in1023.4 mb 0.00 in0.0 mm 0.00 in0.0 mm 0.00 in0.0 mm
07:34 AM 30.9°F-0.6°C 25.8°F-3.4°C 81% 2.2 mph W3.5 kmh W 12.1 mph19.5 kmh 30.21 in1023.0 mb 0.00 in0.0 mm 0.00 in0.0 mm 0.00 in0.0 mm
07:32 AM 30.9°F-0.6°C 25.8°F-3.4°C 81% 3.1 mph W5.0 kmh W 7.6 mph12.2 kmh 30.21 in1023.0 mb 0.00 in0.0 mm 0.00 in0.0 mm 0.00 in0.0 mm
07:30 AM 30.7°F-0.7°C 25.6°F-3.6°C 81% 2.2 mph WSW3.5 kmh WSW 6.9 mph11.1 kmh 30.21 in1023.0 mb 0.00 in0.0 mm 0.00 in0.0 mm 0.00 in0.0 mm
07:28 AM 30.7°F-0.7°C 25.6°F-3.6°C 81% Calm Calm 6.9 mph11.1 kmh 30.21 in1023.0 mb 0.00 in0.0 mm 0.00 in0.0 mm 0.00 in0.0 mm
07:26 AM 30.7°F-0.7°C 25.6°F-3.6°C 81% 2.2 mph WSW3.5 kmh WSW 6.9 mph11.1 kmh 30.21 in1023.0 mb 0.00 in0.0 mm 0.00 in0.0 mm 0.00 in0.0 mm
07:24 AM 30.7°F-0.7°C 25.6°F-3.6°C 81% Calm Calm 6.9 mph11.1 kmh 30.21 in1023.0 mb 0.00 in0.0 mm 0.00 in0.0 mm 0.00 in0.0 mm
07:22 AM 30.7°F-0.7°C 25.6°F-3.6°C 81% Calm Calm 9.2 mph14.8 kmh 30.21 in1023.0 mb 0.00 in0.0 mm 0.00 in0.0 mm 0.00 in0.0 mm
07:20 AM 30.7°F-0.7°C 25.3°F-3.7°C 80% 2.2 mph WNW3.5 kmh WNW 9.2 mph14.8 kmh 30.21 in1023.0 mb 0.00 in0.0 mm 0.00 in0.0 mm 0.00 in0.0 mm
07:18 AM 30.7°F-0.7°C 25.3°F-3.7°C 80% 0.7 mph WNW1.1 kmh WNW 9.2 mph14.8 kmh 30.21 in1023.0 mb 0.00 in0.0 mm 0.00 in0.0 mm 0.00 in0.0 mm
07:16 AM 30.7°F-0.7°C 25.3°F-3.7°C 80% 0.7 mph WNW1.1 kmh WNW 9.2 mph14.8 kmh 30.21 in1023.0 mb 0.00 in0.0 mm 0.00 in0.0 mm 0.00 in0.0 mm
07:14 AM 30.7°F-0.7°C 25.3°F-3.7°C 80% 2.2 mph WNW3.5 kmh WNW 13.6 mph21.9 kmh 30.21 in1023.0 mb 0.00 in0.0 mm 0.00 in0.0 mm 0.00 in0.0 mm
07:12 AM 30.9°F-0.6°C 25.5°F-3.6°C 80% 1.6 mph W2.6 kmh W 14.5 mph23.3 kmh 30.20 in1022.7 mb 0.00 in0.0 mm 0.00 in0.0 mm 0.00 in0.0 mm
07:10 AM 30.9°F-0.6°C 25.5°F-3.6°C 80% 0.7 mph W1.1 kmh W 14.5 mph23.3 kmh 30.21 in1023.0 mb 0.00 in0.0 mm 0.00 in0.0 mm 0.00 in0.0 mm
07:08 AM 30.9°F-0.6°C 25.5°F-3.6°C 80% 2.2 mph W3.5 kmh W 14.5 mph23.3 kmh 30.21 in1023.0 mb 0.00 in0.0 mm 0.00 in0.0 mm 0.00 in0.0 mm
07:06 AM 30.9°F-0.6°C 25.5°F-3.6°C 80% 3.1 mph WSW5.0 kmh WSW 14.5 mph23.3 kmh 30.20 in1022.7 mb 0.00 in0.0 mm 0.00 in0.0 mm 0.00 in0.0 mm
07:04 AM 30.9°F-0.6°C 25.5°F-3.6°C 80% 5.4 mph WSW8.7 kmh WSW 14.5 mph23.3 kmh 30.20 in1022.7 mb 0.00 in0.0 mm 0.00 in0.0 mm 0.00 in0.0 mm
07:02 AM 30.7°F-0.7°C 25.3°F-3.7°C 80% 2.2 mph WSW3.5 kmh WSW 12.1 mph19.5 kmh 30.20 in1022.7 mb 0.00 in0.0 mm 0.00 in0.0 mm 0.00 in0.0 mm
07:00 AM 30.9°F-0.6°C 25.5°F-3.6°C 80% 2.2 mph WSW3.5 kmh WSW 12.1 mph19.5 kmh 30.20 in1022.7 mb 0.00 in0.0 mm 0.00 in0.0 mm 0.00 in0.0 mm
06:58 AM 30.9°F-0.6°C 25.5°F-3.6°C 80% 0.7 mph W1.1 kmh W 12.1 mph19.5 kmh 30.20 in1022.7 mb 0.00 in0.0 mm 0.00 in0.0 mm 0.00 in0.0 mm
06:56 AM 30.9°F-0.6°C 25.5°F-3.6°C 80% 1.6 mph W2.6 kmh W 12.1 mph19.5 kmh 30.20 in1022.7 mb 0.00 in0.0 mm 0.00 in0.0 mm 0.00 in0.0 mm
06:54 AM 30.9°F-0.6°C 25.5°F-3.6°C 80% 1.6 mph W2.6 kmh W 12.1 mph19.5 kmh 30.20 in1022.7 mb 0.00 in0.0 mm 0.00 in0.0 mm 0.00 in0.0 mm
06:52 AM 30.9°F-0.6°C 25.5°F-3.6°C 80% 4.5 mph WNW7.2 kmh WNW 12.1 mph19.5 kmh 30.20 in1022.7 mb 0.00 in0.0 mm 0.00 in0.0 mm 0.00 in0.0 mm
06:50 AM 30.9°F-0.6°C 25.5°F-3.6°C 80% 4.5 mph NW7.2 kmh NW 12.1 mph19.5 kmh 30.19 in1022.4 mb 0.00 in0.0 mm 0.00 in0.0 mm 0.00 in0.0 mm
06:48 AM 30.7°F-0.7°C 25.3°F-3.7°C 80% 1.6 mph N2.6 kmh N 5.4 mph8.7 kmh 30.19 in1022.4 mb 0.00 in0.0 mm 0.00 in0.0 mm 0.00 in0.0 mm
06:46 AM 30.9°F-0.6°C 25.5°F-3.6°C 80% 1.6 mph NNE2.6 kmh NNE 4.5 mph7.2 kmh 30.19 in1022.4 mb 0.00 in0.0 mm 0.00 in0.0 mm 0.00 in0.0 mm
06:44 AM 30.9°F-0.6°C 25.5°F-3.6°C 80% 0.7 mph NNE1.1 kmh NNE 4.5 mph7.2 kmh 30.19 in1022.4 mb 0.00 in0.0 mm 0.00 in0.0 mm 0.00 in0.0 mm
06:42 AM 30.9°F-0.6°C 25.5°F-3.6°C 80% 0.7 mph NE1.1 kmh NE 5.4 mph8.7 kmh 30.18 in1022.0 mb 0.00 in0.0 mm 0.00 in0.0 mm 0.00 in0.0 mm
06:40 AM 31.1°F-0.5°C 25.4°F-3.7°C 79% 1.6 mph NNE2.6 kmh NNE 9.8 mph15.8 kmh 30.19 in1022.4 mb 0.00 in0.0 mm 0.00 in0.0 mm 0.00 in0.0 mm
06:38 AM 31.3°F-0.4°C 25.5°F-3.6°C 79% 1.6 mph NNW2.6 kmh NNW 13.0 mph20.9 kmh 30.18 in1022.0 mb 0.00 in0.0 mm 0.00 in0.0 mm 0.00 in0.0 mm
06:36 AM 31.3°F-0.4°C 25.5°F-3.6°C 79% 1.6 mph WNW2.6 kmh WNW 13.0 mph20.9 kmh 30.18 in1022.0 mb 0.00 in0.0 mm 0.00 in0.0 mm 0.00 in0.0 mm
06:34 AM 31.3°F-0.4°C 25.5°F-3.6°C 79% 1.6 mph W2.6 kmh W 13.0 mph20.9 kmh 30.18 in1022.0 mb 0.00 in0.0 mm 0.00 in0.0 mm 0.00 in0.0 mm
06:32 AM 31.3°F-0.4°C 25.5°F-3.6°C 79% 1.6 mph W2.6 kmh W 13.0 mph20.9 kmh 30.18 in1022.0 mb 0.00 in0.0 mm 0.00 in0.0 mm 0.00 in0.0 mm
06:30 AM 31.5°F-0.3°C 25.7°F-3.5°C 79% 2.2 mph W3.5 kmh W 13.0 mph20.9 kmh 30.18 in1022.0 mb 0.00 in0.0 mm 0.00 in0.0 mm 0.00 in0.0 mm
06:28 AM 31.5°F-0.3°C 25.7°F-3.5°C 79% 6.0 mph WNW9.7 kmh WNW 13.0 mph20.9 kmh 30.18 in1022.0 mb 0.00 in0.0 mm 0.00 in0.0 mm 0.00 in0.0 mm
06:26 AM 31.5°F-0.3°C 25.7°F-3.5°C 79% 2.2 mph NW3.5 kmh NW 12.1 mph19.5 kmh 30.18 in1022.0 mb 0.00 in0.0 mm 0.00 in0.0 mm 0.00 in0.0 mm
06:24 AM 31.5°F-0.3°C 25.7°F-3.5°C 79% 3.1 mph NW5.0 kmh NW 12.1 mph19.5 kmh 30.18 in1022.0 mb 0.00 in0.0 mm 0.00 in0.0 mm 0.00 in0.0 mm
06:22 AM 31.5°F-0.3°C 25.7°F-3.5°C 79% 2.2 mph NW3.5 kmh NW 12.1 mph19.5 kmh 30.18 in1022.0 mb 0.00 in0.0 mm 0.00 in0.0 mm 0.00 in0.0 mm
06:20 AM 31.6°F-0.2°C 25.9°F-3.4°C 79% 2.2 mph NW3.5 kmh NW 12.1 mph19.5 kmh 30.18 in1022.0 mb 0.00 in0.0 mm 0.00 in0.0 mm 0.00 in0.0 mm
06:18 AM 31.6°F-0.2°C 25.9°F-3.4°C 79% 3.1 mph NW5.0 kmh NW 12.1 mph19.5 kmh 30.18 in1022.0 mb 0.00 in0.0 mm 0.00 in0.0 mm 0.00 in0.0 mm
06:16 AM 31.6°F-0.2°C 25.9°F-3.4°C 79% 3.1 mph WNW5.0 kmh WNW 10.7 mph17.2 kmh 30.18 in1022.0 mb 0.00 in0.0 mm 0.00 in0.0 mm 0.00 in0.0 mm
06:14 AM 31.6°F-0.2°C 26.2°F-3.2°C 80% 3.1 mph W5.0 kmh W 9.2 mph14.8 kmh 30.18 in1022.0 mb 0.00 in0.0 mm 0.00 in0.0 mm 0.00 in0.0 mm
06:12 AM 31.6°F-0.2°C 26.2°F-3.2°C 80% 0.7 mph WNW1.1 kmh WNW 9.2 mph14.8 kmh 30.18 in1022.0 mb 0.00 in0.0 mm 0.00 in0.0 mm 0.00 in0.0 mm
06:10 AM 31.8°F-0.1°C 26.4°F-3.1°C 80% 3.1 mph WNW5.0 kmh WNW 9.8 mph15.8 kmh 30.17 in1021.7 mb 0.00 in0.0 mm 0.00 in0.0 mm 0.00 in0.0 mm
06:08 AM 31.8°F-0.1°C 26.4°F-3.1°C 80% 1.6 mph WNW2.6 kmh WNW 9.8 mph15.8 kmh 30.17 in1021.7 mb 0.00 in0.0 mm 0.00 in0.0 mm 0.00 in0.0 mm
06:06 AM 31.8°F-0.1°C 26.4°F-3.1°C 80% 1.6 mph W2.6 kmh W 9.8 mph15.8 kmh 30.17 in1021.7 mb 0.00 in0.0 mm 0.00 in0.0 mm 0.00 in0.0 mm
06:04 AM 31.8°F-0.1°C 26.4°F-3.1°C 80% 1.6 mph W2.6 kmh W 9.8 mph15.8 kmh 30.17 in1021.7 mb 0.00 in0.0 mm 0.00 in0.0 mm 0.00 in0.0 mm
06:02 AM 31.8°F-0.1°C 26.4°F-3.1°C 80% 0.7 mph W1.1 kmh W 13.0 mph20.9 kmh 30.17 in1021.7 mb 0.00 in0.0 mm 0.00 in0.0 mm 0.00 in0.0 mm
06:00 AM 31.8°F-0.1°C 26.4°F-3.1°C 80% 1.6 mph W2.6 kmh W 13.0 mph20.9 kmh 30.17 in1021.7 mb 0.00 in0.0 mm 0.00 in0.0 mm 0.00 in0.0 mm
05:58 AM 31.6°F-0.2°C 26.2°F-3.2°C 80% 2.2 mph WSW3.5 kmh WSW 15.9 mph25.6 kmh 30.16 in1021.3 mb 0.00 in0.0 mm 0.00 in0.0 mm 0.00 in0.0 mm
05:56 AM 31.6°F-0.2°C 26.2°F-3.2°C 80% 2.2 mph WSW3.5 kmh WSW 15.9 mph25.6 kmh 30.17 in1021.7 mb 0.00 in0.0 mm 0.00 in0.0 mm 0.00 in0.0 mm
05:54 AM 31.6°F-0.2°C 26.2°F-3.2°C 80% 2.2 mph W3.5 kmh W 15.9 mph25.6 kmh 30.17 in1021.7 mb 0.00 in0.0 mm 0.00 in0.0 mm 0.00 in0.0 mm
05:52 AM 31.6°F-0.2°C 26.2°F-3.2°C 80% 0.7 mph W1.1 kmh W 15.9 mph25.6 kmh 30.16 in1021.3 mb 0.00 in0.0 mm 0.00 in0.0 mm 0.00 in0.0 mm
05:50 AM 31.5°F-0.3°C 26.0°F-3.3°C 80% 3.8 mph W6.1 kmh W 15.9 mph25.6 kmh 30.16 in1021.3 mb 0.00 in0.0 mm 0.00 in0.0 mm 0.00 in0.0 mm
05:48 AM 31.6°F-0.2°C 26.5°F-3.1°C 81% 1.6 mph NW2.6 kmh NW 8.3 mph13.4 kmh 30.16 in1021.3 mb 0.00 in0.0 mm 0.00 in0.0 mm 0.00 in0.0 mm
05:46 AM 31.6°F-0.2°C 26.5°F-3.1°C 81% 1.6 mph WNW2.6 kmh WNW 12.1 mph19.5 kmh 30.16 in1021.3 mb 0.00 in0.0 mm 0.00 in0.0 mm 0.00 in0.0 mm
05:44 AM 31.6°F-0.2°C 26.5°F-3.1°C 81% 2.2 mph W3.5 kmh W 12.1 mph19.5 kmh 30.16 in1021.3 mb 0.00 in0.0 mm 0.00 in0.0 mm 0.00 in0.0 mm
05:42 AM 31.6°F-0.2°C 26.5°F-3.1°C 81% Calm Calm 12.1 mph19.5 kmh 30.16 in1021.3 mb 0.00 in0.0 mm 0.00 in0.0 mm 0.00 in0.0 mm
05:40 AM 31.8°F-0.1°C 26.7°F-2.9°C 81% 1.6 mph W2.6 kmh W 13.0 mph20.9 kmh 30.16 in1021.3 mb 0.00 in0.0 mm 0.00 in0.0 mm 0.00 in0.0 mm
05:38 AM 31.8°F-0.1°C 26.7°F-2.9°C 81% 3.8 mph W6.1 kmh W 13.0 mph20.9 kmh 30.16 in1021.3 mb 0.00 in0.0 mm 0.00 in0.0 mm 0.00 in0.0 mm
05:36 AM 31.8°F-0.1°C 26.7°F-2.9°C 81% 2.2 mph W3.5 kmh W 13.0 mph20.9 kmh 30.15 in1021.0 mb 0.00 in0.0 mm 0.00 in0.0 mm 0.00 in0.0 mm
05:34 AM 31.8°F-0.1°C 26.7°F-2.9°C 81% 3.1 mph W5.0 kmh W 13.0 mph20.9 kmh 30.15 in1021.0 mb 0.00 in0.0 mm 0.00 in0.0 mm 0.00 in0.0 mm
05:32 AM 32.0°F0.0°C 26.9°F-2.8°C 81% 1.6 mph NW2.6 kmh NW 13.0 mph20.9 kmh 30.15 in1021.0 mb 0.00 in0.0 mm 0.00 in0.0 mm 0.00 in0.0 mm
05:30 AM 32.0°F0.0°C 26.9°F-2.8°C 81% 4.5 mph NNW7.2 kmh NNW 13.0 mph20.9 kmh 30.15 in1021.0 mb 0.00 in0.0 mm 0.00 in0.0 mm 0.00 in0.0 mm
05:28 AM 32.0°F0.0°C 26.9°F-2.8°C 81% Calm Calm 7.6 mph12.2 kmh 30.15 in1021.0 mb 0.00 in0.0 mm 0.00 in0.0 mm 0.00 in0.0 mm
05:26 AM 32.0°F0.0°C 26.9°F-2.8°C 81% Calm Calm 7.6 mph12.2 kmh 30.15 in1021.0 mb 0.00 in0.0 mm 0.00 in0.0 mm 0.00 in0.0 mm
05:24 AM 32.0°F0.0°C 26.9°F-2.8°C 81% 0.7 mph WNW1.1 kmh WNW 8.3 mph13.4 kmh 30.15 in1021.0 mb 0.00 in0.0 mm 0.00 in0.0 mm 0.00 in0.0 mm
05:22 AM 32.0°F0.0°C 26.9°F-2.8°C 81% 2.2 mph WSW3.5 kmh WSW 8.3 mph13.4 kmh 30.15 in1021.0 mb 0.00 in0.0 mm 0.00 in0.0 mm 0.00 in0.0 mm
05:20 AM 31.8°F-0.1°C 26.7°F-2.9°C 81% 3.1 mph WSW5.0 kmh WSW 8.3 mph13.4 kmh 30.15 in1021.0 mb 0.00 in0.0 mm 0.00 in0.0 mm 0.00 in0.0 mm
05:18 AM 31.8°F-0.1°C 26.7°F-2.9°C 81% 3.1 mph WSW5.0 kmh WSW 8.3 mph13.4 kmh 30.15 in1021.0 mb 0.00 in0.0 mm 0.00 in0.0 mm 0.00 in0.0 mm
05:16 AM 31.8°F-0.1°C 26.7°F-2.9°C 81% 2.2 mph SW3.5 kmh SW 8.3 mph13.4 kmh 30.15 in1021.0 mb 0.00 in0.0 mm 0.00 in0.0 mm 0.00 in0.0 mm
05:14 AM 31.8°F-0.1°C 26.7°F-2.9°C 81% 3.1 mph WSW5.0 kmh WSW 11.4 mph18.3 kmh 30.14 in1020.7 mb 0.00 in0.0 mm 0.00 in0.0 mm 0.00 in0.0 mm
05:12 AM 31.8°F-0.1°C 26.7°F-2.9°C 81% 1.6 mph W2.6 kmh W 11.4 mph18.3 kmh 30.14 in1020.7 mb 0.00 in0.0 mm 0.00 in0.0 mm 0.00 in0.0 mm
05:10 AM 31.8°F-0.1°C 26.7°F-2.9°C 81% 2.2 mph W3.5 kmh W 13.0 mph20.9 kmh 30.14 in1020.7 mb 0.00 in0.0 mm 0.00 in0.0 mm 0.00 in0.0 mm
05:08 AM 31.8°F-0.1°C 26.7°F-2.9°C 81% 0.7 mph WNW1.1 kmh WNW 13.0 mph20.9 kmh 30.14 in1020.7 mb 0.00 in0.0 mm 0.00 in0.0 mm 0.00 in0.0 mm
05:06 AM 31.8°F-0.1°C 26.7°F-2.9°C 81% 2.2 mph WNW3.5 kmh WNW 13.0 mph20.9 kmh 30.14 in1020.7 mb 0.00 in0.0 mm 0.00 in0.0 mm 0.00 in0.0 mm
05:04 AM 31.8°F-0.1°C 26.7°F-2.9°C 81% 3.1 mph WNW5.0 kmh WNW 13.0 mph20.9 kmh 30.14 in1020.7 mb 0.00 in0.0 mm 0.00 in0.0 mm 0.00 in0.0 mm
05:02 AM 32.0°F0.0°C 26.9°F-2.8°C 81% 2.2 mph NW3.5 kmh NW 13.0 mph20.9 kmh 30.13 in1020.3 mb 0.00 in0.0 mm 0.00 in0.0 mm 0.00 in0.0 mm
05:00 AM 32.0°F0.0°C 26.9°F-2.8°C 81% 3.1 mph WNW5.0 kmh WNW 14.5 mph23.3 kmh 30.14 in1020.7 mb 0.00 in0.0 mm 0.00 in0.0 mm 0.00 in0.0 mm
04:58 AM 32.0°F0.0°C 26.9°F-2.8°C 81% 3.8 mph WNW6.1 kmh WNW 14.5 mph23.3 kmh 30.14 in1020.7 mb 0.00 in0.0 mm 0.00 in0.0 mm 0.00 in0.0 mm
04:56 AM 32.0°F0.0°C 26.9°F-2.8°C 81% 1.6 mph W2.6 kmh W 14.5 mph23.3 kmh 30.14 in1020.7 mb 0.00 in0.0 mm 0.00 in0.0 mm 0.00 in0.0 mm
04:54 AM 32.2°F0.1°C 27.0°F-2.8°C 81% 0.7 mph W1.1 kmh W 14.5 mph23.3 kmh 30.14 in1020.7 mb 0.00 in0.0 mm 0.00 in0.0 mm 0.00 in0.0 mm
04:52 AM 32.2°F0.1°C 27.0°F-2.8°C 81% 2.2 mph W3.5 kmh W 14.5 mph23.3 kmh 30.13 in1020.3 mb 0.00 in0.0 mm 0.00 in0.0 mm 0.00 in0.0 mm
04:50 AM 32.2°F0.1°C 27.0°F-2.8°C 81% 2.2 mph W3.5 kmh W 13.6 mph21.9 kmh 30.13 in1020.3 mb 0.00 in0.0 mm 0.00 in0.0 mm 0.00 in0.0 mm
04:48 AM 32.2°F0.1°C 27.0°F-2.8°C 81% 2.2 mph W3.5 kmh W 13.6 mph21.9 kmh 30.13 in1020.3 mb 0.00 in0.0 mm 0.00 in0.0 mm 0.00 in0.0 mm
04:46 AM 32.2°F0.1°C 26.7°F-2.9°C 80% 0.7 mph WSW1.1 kmh WSW 13.6 mph21.9 kmh 30.13 in1020.3 mb 0.00 in0.0 mm 0.00 in0.0 mm 0.00 in0.0 mm
04:44 AM 32.4°F0.2°C 26.9°F-2.8°C 80% 3.1 mph WSW5.0 kmh WSW 13.6 mph21.9 kmh 30.13 in1020.3 mb 0.00 in0.0 mm 0.00 in0.0 mm 0.00 in0.0 mm
04:42 AM 32.4°F0.2°C 27.2°F-2.7°C 81% 1.6 mph W2.6 kmh W 13.6 mph21.9 kmh 30.13 in1020.3 mb 0.00 in0.0 mm 0.00 in0.0 mm 0.00 in0.0 mm
04:40 AM 32.4°F0.2°C 27.2°F-2.7°C 81% 1.6 mph NW2.6 kmh NW 12.1 mph19.5 kmh 30.12 in1020.0 mb 0.00 in0.0 mm 0.00 in0.0 mm 0.00 in0.0 mm
04:38 AM 32.4°F0.2°C 26.9°F-2.8°C 80% 2.2 mph NW3.5 kmh NW 12.1 mph19.5 kmh 30.12 in1020.0 mb 0.00 in0.0 mm 0.00 in0.0 mm 0.00 in0.0 mm
04:36 AM 32.4°F0.2°C 26.9°F-2.8°C 80% 1.6 mph NW2.6 kmh NW 12.1 mph19.5 kmh 30.12 in1020.0 mb 0.00 in0.0 mm 0.00 in0.0 mm 0.00 in0.0 mm
04:34 AM 32.4°F0.2°C 26.9°F-2.8°C 80% 0.7 mph W1.1 kmh W 12.1 mph19.5 kmh 30.12 in1020.0 mb 0.00 in0.0 mm 0.00 in0.0 mm 0.00 in0.0 mm
04:32 AM 32.4°F0.2°C 26.9°F-2.8°C 80% 3.8 mph W6.1 kmh W 12.1 mph19.5 kmh 30.12 in1020.0 mb 0.00 in0.0 mm 0.00 in0.0 mm 0.00 in0.0 mm
04:30 AM 32.4°F0.2°C 26.9°F-2.8°C 80% 2.2 mph WSW3.5 kmh WSW 9.8 mph15.8 kmh 30.12 in1020.0 mb 0.00 in0.0 mm 0.00 in0.0 mm 0.00 in0.0 mm
04:28 AM 32.4°F0.2°C 26.9°F-2.8°C 80% 1.6 mph WSW2.6 kmh WSW 9.8 mph15.8 kmh 30.12 in1020.0 mb 0.00 in0.0 mm 0.00 in0.0 mm 0.00 in0.0 mm
04:26 AM 32.4°F0.2°C 26.9°F-2.8°C 80% 0.7 mph W1.1 kmh W 11.4 mph18.3 kmh 30.11 in1019.6 mb 0.00 in0.0 mm 0.00 in0.0 mm 0.00 in0.0 mm
04:24 AM 32.4°F0.2°C 26.9°F-2.8°C 80% 2.2 mph WNW3.5 kmh WNW 11.4 mph18.3 kmh 30.11 in1019.6 mb 0.00 in0.0 mm 0.00 in0.0 mm 0.00 in0.0 mm
04:22 AM 32.4°F0.2°C 26.9°F-2.8°C 80% 3.1 mph WNW5.0 kmh WNW 15.9 mph25.6 kmh 30.11 in1019.6 mb 0.00 in0.0 mm 0.00 in0.0 mm 0.00 in0.0 mm
04:20 AM 32.4°F0.2°C 26.9°F-2.8°C 80% 5.4 mph NW8.7 kmh NW 15.9 mph25.6 kmh 30.11 in1019.6 mb 0.00 in0.0 mm 0.00 in0.0 mm 0.00 in0.0 mm
04:18 AM 32.4°F0.2°C 26.9°F-2.8°C 80% 5.4 mph NW8.7 kmh NW 15.9 mph25.6 kmh 30.11 in1019.6 mb 0.00 in0.0 mm 0.00 in0.0 mm 0.00 in0.0 mm
04:16 AM 32.4°F0.2°C 26.9°F-2.8°C 80% 4.5 mph W7.2 kmh W 15.9 mph25.6 kmh 30.11 in1019.6 mb 0.00 in0.0 mm 0.00 in0.0 mm 0.00 in0.0 mm
04:14 AM 32.4°F0.2°C 26.9°F-2.8°C 80% 5.4 mph W8.7 kmh W 15.9 mph25.6 kmh 30.11 in1019.6 mb 0.00 in0.0 mm 0.00 in0.0 mm 0.00 in0.0 mm
04:12 AM 32.4°F0.2°C 27.2°F-2.7°C 81% 3.1 mph W5.0 kmh W 13.6 mph21.9 kmh 30.10 in1019.3 mb 0.00 in0.0 mm 0.00 in0.0 mm 0.00 in0.0 mm
04:10 AM 32.4°F0.2°C 27.2°F-2.7°C 81% 2.2 mph W3.5 kmh W 13.6 mph21.9 kmh 30.10 in1019.3 mb 0.00 in0.0 mm 0.00 in0.0 mm 0.00 in0.0 mm
04:08 AM 32.4°F0.2°C 27.2°F-2.7°C 81% 3.8 mph W6.1 kmh W 13.6 mph21.9 kmh 30.10 in1019.3 mb 0.00 in0.0 mm 0.00 in0.0 mm 0.00 in0.0 mm
04:06 AM 32.4°F0.2°C 27.5°F-2.5°C 82% 3.8 mph W6.1 kmh W 10.7 mph17.2 kmh 30.10 in1019.3 mb 0.00 in0.0 mm 0.00 in0.0 mm 0.00 in0.0 mm
04:04 AM 32.4°F0.2°C 27.5°F-2.5°C 82% 3.1 mph W5.0 kmh W 10.7 mph17.2 kmh 30.10 in1019.3 mb 0.00 in0.0 mm 0.00 in0.0 mm 0.00 in0.0 mm
04:02 AM 32.4°F0.2°C 27.5°F-2.5°C 82% 1.6 mph W2.6 kmh W 10.7 mph17.2 kmh 30.10 in1019.3 mb 0.00 in0.0 mm 0.00 in0.0 mm 0.00 in0.0 mm
04:00 AM 32.4°F0.2°C 27.5°F-2.5°C 82% 2.2 mph WNW3.5 kmh WNW 12.1 mph19.5 kmh 30.10 in1019.3 mb 0.00 in0.0 mm 0.00 in0.0 mm 0.00 in0.0 mm
03:58 AM 32.4°F0.2°C 27.8°F-2.3°C 83% 2.2 mph WNW3.5 kmh WNW 12.1 mph19.5 kmh 30.10 in1019.3 mb 0.00 in0.0 mm 0.00 in0.0 mm 0.00 in0.0 mm
03:56 AM 32.4°F0.2°C 27.8°F-2.3°C 83% 1.6 mph WNW2.6 kmh WNW 12.1 mph19.5 kmh 30.09 in1019.0 mb 0.00 in0.0 mm 0.00 in0.0 mm 0.00 in0.0 mm
03:54 AM 32.4°F0.2°C 27.8°F-2.3°C 83% 1.6 mph NW2.6 kmh NW 16.8 mph27.0 kmh 30.09 in1019.0 mb 0.00 in0.0 mm 0.00 in0.0 mm 0.00 in0.0 mm
03:52 AM 32.4°F0.2°C 27.8°F-2.3°C 83% 0.7 mph NW1.1 kmh NW 16.8 mph27.0 kmh 30.09 in1019.0 mb 0.00 in0.0 mm 0.00 in0.0 mm 0.00 in0.0 mm
03:50 AM 32.4°F0.2°C 27.8°F-2.3°C 83% 3.8 mph NW6.1 kmh NW 16.8 mph27.0 kmh 30.09 in1019.0 mb 0.00 in0.0 mm 0.00 in0.0 mm 0.00 in0.0 mm
03:48 AM 32.4°F0.2°C 27.8°F-2.3°C 83% 3.8 mph W6.1 kmh W 16.8 mph27.0 kmh 30.09 in1019.0 mb 0.00 in0.0 mm 0.00 in0.0 mm 0.00 in0.0 mm
03:46 AM 32.4°F0.2°C 27.8°F-2.3°C 83% 2.2 mph W3.5 kmh W 16.8 mph27.0 kmh 30.09 in1019.0 mb 0.00 in0.0 mm 0.00 in0.0 mm 0.00 in0.0 mm
03:44 AM 32.4°F0.2°C 27.8°F-2.3°C 83% 3.1 mph WSW5.0 kmh WSW 14.5 mph23.3 kmh 30.09 in1019.0 mb 0.00 in0.0 mm 0.00 in0.0 mm 0.00 in0.0 mm
03:42 AM 32.4°F0.2°C 27.8°F-2.3°C 83% 3.8 mph W6.1 kmh W 14.5 mph23.3 kmh 30.09 in1019.0 mb 0.00 in0.0 mm 0.00 in0.0 mm 0.00 in0.0 mm
03:40 AM 32.5°F0.3°C 27.7°F-2.4°C 82% 2.2 mph WSW3.5 kmh WSW 11.4 mph18.3 kmh 30.08 in1018.6 mb 0.00 in0.0 mm 0.00 in0.0 mm 0.00 in0.0 mm
03:38 AM 32.5°F0.3°C 27.7°F-2.4°C 82% 1.6 mph W2.6 kmh W 9.8 mph15.8 kmh 30.08 in1018.6 mb 0.00 in0.0 mm 0.00 in0.0 mm 0.00 in0.0 mm
03:36 AM 32.5°F0.3°C 27.7°F-2.4°C 82% 3.1 mph W5.0 kmh W 9.8 mph15.8 kmh 30.08 in1018.6 mb 0.00 in0.0 mm 0.00 in0.0 mm 0.00 in0.0 mm
03:34 AM 32.5°F0.3°C 27.7°F-2.4°C 82% 3.1 mph WSW5.0 kmh WSW 9.8 mph15.8 kmh 30.08 in1018.6 mb 0.00 in0.0 mm 0.00 in0.0 mm 0.00 in0.0 mm
03:32 AM 32.7°F0.4°C 27.6°F-2.4°C 81% 3.8 mph WSW6.1 kmh WSW 11.4 mph18.3 kmh 30.08 in1018.6 mb 0.00 in0.0 mm 0.00 in0.0 mm 0.00 in0.0 mm
03:30 AM 32.7°F0.4°C 27.6°F-2.4°C 81% 3.1 mph W5.0 kmh W 11.4 mph18.3 kmh 30.07 in1018.3 mb 0.00 in0.0 mm 0.00 in0.0 mm 0.00 in0.0 mm
03:28 AM 32.7°F0.4°C 27.6°F-2.4°C 81% 1.6 mph W2.6 kmh W 11.4 mph18.3 kmh 30.07 in1018.3 mb 0.00 in0.0 mm 0.00 in0.0 mm 0.00 in0.0 mm
03:26 AM 32.7°F0.4°C 27.6°F-2.4°C 81% 2.2 mph WSW3.5 kmh WSW 16.8 mph27.0 kmh 30.08 in1018.6 mb 0.00 in0.0 mm 0.00 in0.0 mm 0.00 in0.0 mm
03:24 AM 32.7°F0.4°C 27.6°F-2.4°C 81% 2.2 mph W3.5 kmh W 16.8 mph27.0 kmh 30.07 in1018.3 mb 0.00 in0.0 mm 0.00 in0.0 mm 0.00 in0.0 mm
03:22 AM 32.7°F0.4°C 27.6°F-2.4°C 81% 3.8 mph W6.1 kmh W 16.8 mph27.0 kmh 30.07 in1018.3 mb 0.00 in0.0 mm 0.00 in0.0 mm 0.00 in0.0 mm
03:20 AM 32.9°F0.5°C 27.7°F-2.4°C 81% 1.6 mph W2.6 kmh W 16.8 mph27.0 kmh 30.07 in1018.3 mb 0.00 in0.0 mm 0.00 in0.0 mm 0.00 in0.0 mm
03:18 AM 32.9°F0.5°C 27.7°F-2.4°C 81% 4.5 mph WSW7.2 kmh WSW 16.8 mph27.0 kmh 30.08 in1018.6 mb 0.00 in0.0 mm 0.00 in0.0 mm 0.00 in0.0 mm
03:16 AM 32.9°F0.5°C 27.7°F-2.4°C 81% 3.8 mph W6.1 kmh W 12.1 mph19.5 kmh 30.08 in1018.6 mb 0.00 in0.0 mm 0.00 in0.0 mm 0.00 in0.0 mm
03:14 AM 32.9°F0.5°C 27.7°F-2.4°C 81% 2.2 mph W3.5 kmh W 15.2 mph24.5 kmh 30.07 in1018.3 mb 0.00 in0.0 mm 0.00 in0.0 mm 0.00 in0.0 mm
03:12 AM 32.9°F0.5°C 27.4°F-2.6°C 80% 3.1 mph W5.0 kmh W 15.2 mph24.5 kmh 30.08 in1018.6 mb 0.00 in0.0 mm 0.00 in0.0 mm 0.00 in0.0 mm
03:10 AM 32.9°F0.5°C 27.4°F-2.6°C 80% 1.6 mph W2.6 kmh W 15.2 mph24.5 kmh 30.07 in1018.3 mb 0.00 in0.0 mm 0.00 in0.0 mm 0.00 in0.0 mm
03:08 AM 33.1°F0.6°C 27.6°F-2.4°C 80% 3.1 mph WNW5.0 kmh WNW 15.2 mph24.5 kmh 30.07 in1018.3 mb 0.00 in0.0 mm 0.00 in0.0 mm 0.00 in0.0 mm
03:06 AM 33.1°F0.6°C 27.6°F-2.4°C 80% 1.6 mph WNW2.6 kmh WNW 15.2 mph24.5 kmh 30.08 in1018.6 mb 0.00 in0.0 mm 0.00 in0.0 mm 0.00 in0.0 mm
03:04 AM 33.1°F0.6°C 27.3°F-2.6°C 79% 4.5 mph NW7.2 kmh NW 15.2 mph24.5 kmh 30.07 in1018.3 mb 0.00 in0.0 mm 0.00 in0.0 mm 0.00 in0.0 mm
03:02 AM 33.1°F0.6°C 27.3°F-2.6°C 79% 3.8 mph WNW6.1 kmh WNW 13.6 mph21.9 kmh 30.07 in1018.3 mb 0.00 in0.0 mm 0.00 in0.0 mm 0.00 in0.0 mm
03:00 AM 33.1°F0.6°C 27.3°F-2.6°C 79% 2.2 mph WNW3.5 kmh WNW 13.6 mph21.9 kmh 30.07 in1018.3 mb 0.00 in0.0 mm 0.00 in0.0 mm 0.00 in0.0 mm
02:58 AM 33.1°F0.6°C 27.3°F-2.6°C 79% 3.1 mph WNW5.0 kmh WNW 13.6 mph21.9 kmh 30.07 in1018.3 mb 0.00 in0.0 mm 0.00 in0.0 mm 0.00 in0.0 mm
02:56 AM 33.1°F0.6°C 27.3°F-2.6°C 79% 2.2 mph W3.5 kmh W 13.6 mph21.9 kmh 30.06 in1017.9 mb 0.00 in0.0 mm 0.00 in0.0 mm 0.00 in0.0 mm
02:54 AM 33.1°F0.6°C 27.3°F-2.6°C 79% 2.2 mph W3.5 kmh W 13.6 mph21.9 kmh 30.07 in1018.3 mb 0.00 in0.0 mm 0.00 in0.0 mm 0.00 in0.0 mm
02:52 AM 33.1°F0.6°C 27.3°F-2.6°C 79% 3.1 mph W5.0 kmh W 15.9 mph25.6 kmh 30.06 in1017.9 mb 0.00 in0.0 mm 0.00 in0.0 mm 0.00 in0.0 mm
02:50 AM 33.1°F0.6°C 27.3°F-2.6°C 79% 3.1 mph WNW5.0 kmh WNW 15.9 mph25.6 kmh 30.06 in1017.9 mb 0.00 in0.0 mm 0.00 in0.0 mm 0.00 in0.0 mm
02:48 AM 33.1°F0.6°C 27.3°F-2.6°C 79% 3.1 mph WNW5.0 kmh WNW 15.9 mph25.6 kmh 30.07 in1018.3 mb 0.00 in0.0 mm 0.00 in0.0 mm 0.00 in0.0 mm
02:46 AM 33.1°F0.6°C 27.3°F-2.6°C 79% Calm Calm 15.9 mph25.6 kmh 30.07 in1018.3 mb 0.00 in0.0 mm 0.00 in0.0 mm 0.00 in0.0 mm
02:44 AM 33.3°F0.7°C 27.5°F-2.5°C 79% 0.7 mph WNW1.1 kmh WNW 15.9 mph25.6 kmh 30.07 in1018.3 mb 0.00 in0.0 mm 0.00 in0.0 mm 0.00 in0.0 mm
02:42 AM 33.1°F0.6°C 27.3°F-2.6°C 79% 5.4 mph W8.7 kmh W 15.9 mph25.6 kmh 30.07 in1018.3 mb 0.00 in0.0 mm 0.00 in0.0 mm 0.00 in0.0 mm
02:40 AM 33.1°F0.6°C 27.3°F-2.6°C 79% 3.8 mph W6.1 kmh W 15.9 mph25.6 kmh 30.06 in1017.9 mb 0.00 in0.0 mm 0.00 in0.0 mm 0.00 in0.0 mm
02:38 AM 33.1°F0.6°C 27.6°F-2.4°C 80% 3.8 mph W6.1 kmh W 15.2 mph24.5 kmh 30.06 in1017.9 mb 0.00 in0.0 mm 0.00 in0.0 mm 0.00 in0.0 mm
02:36 AM 33.1°F0.6°C 27.3°F-2.6°C 79% Calm Calm 15.2 mph24.5 kmh 30.06 in1017.9 mb 0.00 in0.0 mm 0.00 in0.0 mm 0.00 in0.0 mm
02:34 AM 33.1°F0.6°C 27.3°F-2.6°C 79% 2.2 mph W3.5 kmh W 15.2 mph24.5 kmh 30.06 in1017.9 mb 0.00 in0.0 mm 0.00 in0.0 mm 0.00 in0.0 mm
02:32 AM 33.1°F0.6°C 27.3°F-2.6°C 79% 3.1 mph W5.0 kmh W 11.4 mph18.3 kmh 30.06 in1017.9 mb 0.00 in0.0 mm 0.00 in0.0 mm 0.00 in0.0 mm
02:30 AM 33.1°F0.6°C 27.3°F-2.6°C 79% 3.1 mph W5.0 kmh W 11.4 mph18.3 kmh 30.06 in1017.9 mb 0.00 in0.0 mm 0.00 in0.0 mm 0.00 in0.0 mm
02:28 AM 33.1°F0.6°C 27.3°F-2.6°C 79% 3.8 mph W6.1 kmh W 11.4 mph18.3 kmh 30.06 in1017.9 mb 0.00 in0.0 mm 0.00 in0.0 mm 0.00 in0.0 mm
02:26 AM 33.1°F0.6°C 27.3°F-2.6°C 79% 2.2 mph W3.5 kmh W 11.4 mph18.3 kmh 30.06 in1017.9 mb 0.00 in0.0 mm 0.00 in0.0 mm 0.00 in0.0 mm
02:24 AM 33.1°F0.6°C 27.3°F-2.6°C 79% 2.2 mph W3.5 kmh W 11.4 mph18.3 kmh 30.06 in1017.9 mb 0.00 in0.0 mm 0.00 in0.0 mm 0.00 in0.0 mm
02:22 AM 33.1°F0.6°C 27.3°F-2.6°C 79% 1.6 mph W2.6 kmh W 8.3 mph13.4 kmh 30.06 in1017.9 mb 0.00 in0.0 mm 0.00 in0.0 mm 0.00 in0.0 mm
02:20 AM 33.1°F0.6°C 27.3°F-2.6°C 79% 1.6 mph W2.6 kmh W 8.3 mph13.4 kmh 30.05 in1017.6 mb 0.00 in0.0 mm 0.00 in0.0 mm 0.00 in0.0 mm
02:18 AM 33.3°F0.7°C 27.5°F-2.5°C 79% 2.2 mph W3.5 kmh W 9.2 mph14.8 kmh 30.06 in1017.9 mb 0.00 in0.0 mm 0.00 in0.0 mm 0.00 in0.0 mm
02:16 AM 33.3°F0.7°C 27.5°F-2.5°C 79% 1.6 mph W2.6 kmh W 9.2 mph14.8 kmh 30.06 in1017.9 mb 0.00 in0.0 mm 0.00 in0.0 mm 0.00 in0.0 mm
02:14 AM 33.3°F0.7°C 27.5°F-2.5°C 79% 2.2 mph WNW3.5 kmh WNW 9.2 mph14.8 kmh 30.06 in1017.9 mb 0.00 in0.0 mm 0.00 in0.0 mm 0.00 in0.0 mm
02:12 AM 33.3°F0.7°C 27.5°F-2.5°C 79% 2.2 mph W3.5 kmh W 9.2 mph14.8 kmh 30.05 in1017.6 mb 0.00 in0.0 mm 0.00 in0.0 mm 0.00 in0.0 mm
02:10 AM 33.3°F0.7°C 27.5°F-2.5°C 79% 0.7 mph W1.1 kmh W 9.2 mph14.8 kmh 30.06 in1017.9 mb 0.00 in0.0 mm 0.00 in0.0 mm 0.00 in0.0 mm
02:08 AM 33.3°F0.7°C 27.5°F-2.5°C 79% 2.2 mph W3.5 kmh W 8.3 mph13.4 kmh 30.05 in1017.6 mb 0.00 in0.0 mm 0.00 in0.0 mm 0.00 in0.0 mm
02:06 AM 33.3°F0.7°C 27.5°F-2.5°C 79% Calm Calm 8.3 mph13.4 kmh 30.06 in1017.9 mb 0.00 in0.0 mm 0.00 in0.0 mm 0.00 in0.0 mm
02:04 AM 33.3°F0.7°C 27.5°F-2.5°C 79% Calm Calm 11.4 mph18.3 kmh 30.05 in1017.6 mb 0.00 in0.0 mm 0.00 in0.0 mm 0.00 in0.0 mm
02:02 AM 33.3°F0.7°C 27.5°F-2.5°C 79% 1.6 mph W2.6 kmh W 18.3 mph29.5 kmh 30.05 in1017.6 mb 0.00 in0.0 mm 0.00 in0.0 mm 0.00 in0.0 mm
02:00 AM 33.3°F0.7°C 27.5°F-2.5°C 79% Calm Calm 18.3 mph29.5 kmh 30.05 in1017.6 mb 0.00 in0.0 mm 0.00 in0.0 mm 0.00 in0.0 mm
01:58 AM 33.3°F0.7°C 27.5°F-2.5°C 79% 1.6 mph W2.6 kmh W 18.3 mph29.5 kmh 30.05 in1017.6 mb 0.00 in0.0 mm 0.00 in0.0 mm 0.00 in0.0 mm
01:56 AM 33.3°F0.7°C 27.5°F-2.5°C 79% 1.6 mph W2.6 kmh W 18.3 mph29.5 kmh 30.05 in1017.6 mb 0.00 in0.0 mm 0.00 in0.0 mm 0.00 in0.0 mm
01:54 AM 33.1°F0.6°C 27.3°F-2.6°C 79% 3.8 mph W6.1 kmh W 18.3 mph29.5 kmh 30.05 in1017.6 mb 0.00 in0.0 mm 0.00 in0.0 mm 0.00 in0.0 mm
01:52 AM 33.3°F0.7°C 27.5°F-2.5°C 79% 2.2 mph W3.5 kmh W 13.6 mph21.9 kmh 30.05 in1017.6 mb 0.00 in0.0 mm 0.00 in0.0 mm 0.00 in0.0 mm
01:50 AM 33.3°F0.7°C 27.5°F-2.5°C 79% 3.8 mph W6.1 kmh W 13.6 mph21.9 kmh 30.05 in1017.6 mb 0.00 in0.0 mm 0.00 in0.0 mm 0.00 in0.0 mm
01:48 AM 33.1°F0.6°C 27.3°F-2.6°C 79% 6.0 mph W9.7 kmh W 10.7 mph17.2 kmh 30.04 in1017.3 mb 0.00 in0.0 mm 0.00 in0.0 mm 0.00 in0.0 mm
01:46 AM 33.1°F0.6°C 27.3°F-2.6°C 79% 3.8 mph W6.1 kmh W 9.2 mph14.8 kmh 30.04 in1017.3 mb 0.00 in0.0 mm 0.00 in0.0 mm 0.00 in0.0 mm
01:44 AM 33.1°F0.6°C 27.6°F-2.4°C 80% 1.6 mph W2.6 kmh W 9.2 mph14.8 kmh 30.05 in1017.6 mb 0.00 in0.0 mm 0.00 in0.0 mm 0.00 in0.0 mm
01:42 AM 33.1°F0.6°C 27.3°F-2.6°C 79% 1.6 mph WNW2.6 kmh WNW 9.2 mph14.8 kmh 30.04 in1017.3 mb 0.00 in0.0 mm 0.00 in0.0 mm 0.00 in0.0 mm
01:40 AM 33.3°F0.7°C 27.5°F-2.5°C 79% 2.2 mph NW3.5 kmh NW 9.2 mph14.8 kmh 30.04 in1017.3 mb 0.00 in0.0 mm 0.00 in0.0 mm 0.00 in0.0 mm
01:38 AM 33.3°F0.7°C 27.5°F-2.5°C 79% 0.7 mph NW1.1 kmh NW 9.2 mph14.8 kmh 30.04 in1017.3 mb 0.00 in0.0 mm 0.00 in0.0 mm 0.00 in0.0 mm
01:36 AM 33.3°F0.7°C 27.5°F-2.5°C 79% 0.7 mph NW1.1 kmh NW 13.0 mph20.9 kmh 30.04 in1017.3 mb 0.00 in0.0 mm 0.00 in0.0 mm 0.00 in0.0 mm
01:34 AM 33.3°F0.7°C 27.5°F-2.5°C 79% 3.1 mph NW5.0 kmh NW 13.0 mph20.9 kmh 30.04 in1017.3 mb 0.00 in0.0 mm 0.00 in0.0 mm 0.00 in0.0 mm
01:32 AM 33.3°F0.7°C 27.5°F-2.5°C 79% 1.6 mph NW2.6 kmh NW 13.0 mph20.9 kmh 30.05 in1017.6 mb 0.00 in0.0 mm 0.00 in0.0 mm 0.00 in0.0 mm
01:30 AM 33.3°F0.7°C 27.5°F-2.5°C 79% 0.7 mph NW1.1 kmh NW 13.0 mph20.9 kmh 30.05 in1017.6 mb 0.00 in0.0 mm 0.00 in0.0 mm 0.00 in0.0 mm
01:28 AM 33.3°F0.7°C 27.2°F-2.7°C 78% 0.7 mph WNW1.1 kmh WNW 13.0 mph20.9 kmh 30.04 in1017.3 mb 0.00 in0.0 mm 0.00 in0.0 mm 0.00 in0.0 mm
01:26 AM 33.4°F0.8°C 27.3°F-2.6°C 78% 3.8 mph NW6.1 kmh NW 13.0 mph20.9 kmh 30.04 in1017.3 mb 0.00 in0.0 mm 0.00 in0.0 mm 0.00 in0.0 mm
01:24 AM 33.4°F0.8°C 27.3°F-2.6°C 78% 2.2 mph NW3.5 kmh NW 8.3 mph13.4 kmh 30.05 in1017.6 mb 0.00 in0.0 mm 0.00 in0.0 mm 0.00 in0.0 mm
01:22 AM 33.4°F0.8°C 27.3°F-2.6°C 78% 1.6 mph NW2.6 kmh NW 8.3 mph13.4 kmh 30.05 in1017.6 mb 0.00 in0.0 mm 0.00 in0.0 mm 0.00 in0.0 mm
01:20 AM 33.4°F0.8°C 27.3°F-2.6°C 78% 3.1 mph NW5.0 kmh NW 8.3 mph13.4 kmh 30.04 in1017.3 mb 0.00 in0.0 mm 0.00 in0.0 mm 0.00 in0.0 mm
01:18 AM 33.4°F0.8°C 27.0°F-2.8°C 77% 1.6 mph NW2.6 kmh NW 8.3 mph13.4 kmh 30.04 in1017.3 mb 0.00 in0.0 mm 0.00 in0.0 mm 0.00 in0.0 mm
01:16 AM 33.4°F0.8°C 27.0°F-2.8°C 77% 1.6 mph WNW2.6 kmh WNW 8.3 mph13.4 kmh 30.04 in1017.3 mb 0.00 in0.0 mm 0.00 in0.0 mm 0.00 in0.0 mm
01:14 AM 33.4°F0.8°C 27.0°F-2.8°C 77% 2.2 mph WNW3.5 kmh WNW 8.3 mph13.4 kmh 30.04 in1017.3 mb 0.00 in0.0 mm 0.00 in0.0 mm 0.00 in0.0 mm
01:12 AM 33.6°F0.9°C 27.2°F-2.7°C 77% 1.6 mph WNW2.6 kmh WNW 7.6 mph12.2 kmh 30.04 in1017.3 mb 0.00 in0.0 mm 0.00 in0.0 mm 0.00 in0.0 mm
01:10 AM 33.6°F0.9°C 27.2°F-2.7°C 77% 0.7 mph WNW1.1 kmh WNW 7.6 mph12.2 kmh 30.04 in1017.3 mb 0.00 in0.0 mm 0.00 in0.0 mm 0.00 in0.0 mm
01:08 AM 33.6°F0.9°C 27.2°F-2.7°C 77% Calm Calm 7.6 mph12.2 kmh 30.04 in1017.3 mb 0.00 in0.0 mm 0.00 in0.0 mm 0.00 in0.0 mm
01:06 AM 33.6°F0.9°C 27.2°F-2.7°C 77% 2.2 mph WNW3.5 kmh WNW 7.6 mph12.2 kmh 30.04 in1017.3 mb 0.00 in0.0 mm 0.00 in0.0 mm 0.00 in0.0 mm
01:04 AM 33.6°F0.9°C 27.2°F-2.7°C 77% 0.7 mph W1.1 kmh W 7.6 mph12.2 kmh 30.04 in1017.3 mb 0.00 in0.0 mm 0.00 in0.0 mm 0.00 in0.0 mm
01:02 AM 33.6°F0.9°C 27.2°F-2.7°C 77% 0.7 mph W1.1 kmh W 7.6 mph12.2 kmh 30.04 in1017.3 mb 0.00 in0.0 mm 0.00 in0.0 mm 0.00 in0.0 mm
01:00 AM 33.8°F1.0°C 27.4°F-2.6°C 77% 1.6 mph WSW2.6 kmh WSW 14.5 mph23.3 kmh 30.04 in1017.3 mb 0.00 in0.0 mm 0.00 in0.0 mm 0.00 in0.0 mm
12:58 AM 33.8°F1.0°C 27.4°F-2.6°C 77% Calm Calm 14.5 mph23.3 kmh 30.04 in1017.3 mb 0.00 in0.0 mm 0.00 in0.0 mm 0.00 in0.0 mm
12:56 AM 33.8°F1.0°C 27.4°F-2.6°C 77% 3.8 mph S6.1 kmh S 14.5 mph23.3 kmh 30.04 in1017.3 mb 0.00 in0.0 mm 0.00 in0.0 mm 0.00 in0.0 mm
12:54 AM 33.8°F1.0°C 27.4°F-2.6°C 77% 0.7 mph SW1.1 kmh SW 14.5 mph23.3 kmh 30.04 in1017.3 mb 0.00 in0.0 mm 0.00 in0.0 mm 0.00 in0.0 mm
12:52 AM 33.8°F1.0°C 27.1°F-2.7°C 76% 0.7 mph WSW1.1 kmh WSW 14.5 mph23.3 kmh 30.04 in1017.3 mb 0.00 in0.0 mm 0.00 in0.0 mm 0.00 in0.0 mm
12:50 AM 33.8°F1.0°C 27.1°F-2.7°C 76% 5.4 mph W8.7 kmh W 14.5 mph23.3 kmh 30.04 in1017.3 mb 0.00 in0.0 mm 0.00 in0.0 mm 0.00 in0.0 mm
12:48 AM 33.8°F1.0°C 27.4°F-2.6°C 77% 3.8 mph NW6.1 kmh NW 12.1 mph19.5 kmh 30.04 in1017.3 mb 0.00 in0.0 mm 0.00 in0.0 mm 0.00 in0.0 mm
12:46 AM 33.8°F1.0°C 27.4°F-2.6°C 77% 3.1 mph NW5.0 kmh NW 10.7 mph17.2 kmh 30.04 in1017.3 mb 0.00 in0.0 mm 0.00 in0.0 mm 0.00 in0.0 mm
12:44 AM 33.8°F1.0°C 27.4°F-2.6°C 77% 1.6 mph WNW2.6 kmh WNW 8.3 mph13.4 kmh 30.04 in1017.3 mb 0.00 in0.0 mm 0.00 in0.0 mm 0.00 in0.0 mm
12:42 AM 33.8°F1.0°C 27.4°F-2.6°C 77% 2.2 mph WNW3.5 kmh WNW 8.3 mph13.4 kmh 30.04 in1017.3 mb 0.00 in0.0 mm 0.00 in0.0 mm 0.00 in0.0 mm
12:40 AM 33.8°F1.0°C 27.4°F-2.6°C 77% 0.7 mph NW1.1 kmh NW 8.3 mph13.4 kmh 30.04 in1017.3 mb 0.00 in0.0 mm 0.00 in0.0 mm 0.00 in0.0 mm
12:38 AM 33.8°F1.0°C 27.4°F-2.6°C 77% 1.6 mph WNW2.6 kmh WNW 9.2 mph14.8 kmh 30.04 in1017.3 mb 0.00 in0.0 mm 0.00 in0.0 mm 0.00 in0.0 mm
12:36 AM 33.8°F1.0°C 27.4°F-2.6°C 77% 0.7 mph NW1.1 kmh NW 9.2 mph14.8 kmh 30.03 in1016.9 mb 0.00 in0.0 mm 0.00 in0.0 mm 0.00 in0.0 mm
12:34 AM 34.0°F1.1°C 27.5°F-2.5°C 77% 1.6 mph NW2.6 kmh NW 9.2 mph14.8 kmh 30.03 in1016.9 mb 0.00 in0.0 mm 0.00 in0.0 mm 0.00 in0.0 mm
12:32 AM 34.0°F1.1°C 27.5°F-2.5°C 77% 2.2 mph W3.5 kmh W 9.2 mph14.8 kmh 30.03 in1016.9 mb 0.00 in0.0 mm 0.00 in0.0 mm 0.00 in0.0 mm
12:30 AM 33.8°F1.0°C 27.4°F-2.6°C 77% 3.1 mph WSW5.0 kmh WSW 9.2 mph14.8 kmh 30.04 in1017.3 mb 0.00 in0.0 mm 0.00 in0.0 mm 0.00 in0.0 mm
12:28 AM 33.8°F1.0°C 27.7°F-2.4°C 78% Calm Calm 9.2 mph14.8 kmh 30.03 in1016.9 mb 0.00 in0.0 mm 0.00 in0.0 mm 0.00 in0.0 mm
12:26 AM 33.8°F1.0°C 27.4°F-2.6°C 77% 0.7 mph SW1.1 kmh SW 9.2 mph14.8 kmh 30.03 in1016.9 mb 0.00 in0.0 mm 0.00 in0.0 mm 0.00 in0.0 mm
12:24 AM 34.0°F1.1°C 27.5°F-2.5°C 77% 2.2 mph WSW3.5 kmh WSW 10.7 mph17.2 kmh 30.03 in1016.9 mb 0.00 in0.0 mm 0.00 in0.0 mm 0.00 in0.0 mm
12:22 AM 34.0°F1.1°C 27.5°F-2.5°C 77% 3.1 mph WSW5.0 kmh WSW 10.7 mph17.2 kmh 30.03 in1016.9 mb 0.00 in0.0 mm 0.00 in0.0 mm 0.00 in0.0 mm
12:20 AM 34.0°F1.1°C 27.5°F-2.5°C 77% 1.6 mph WSW2.6 kmh WSW 10.7 mph17.2 kmh 30.03 in1016.9 mb 0.00 in0.0 mm 0.00 in0.0 mm 0.00 in0.0 mm
12:18 AM 34.0°F1.1°C 27.9°F-2.3°C 78% 1.6 mph W2.6 kmh W 10.7 mph17.2 kmh 30.03 in1016.9 mb 0.00 in0.0 mm 0.00 in0.0 mm 0.00 in0.0 mm
12:16 AM 34.0°F1.1°C 27.9°F-2.3°C 78% 3.1 mph W5.0 kmh W 10.7 mph17.2 kmh 30.03 in1016.9 mb 0.00 in0.0 mm 0.00 in0.0 mm 0.00 in0.0 mm
12:14 AM 34.0°F1.1°C 27.9°F-2.3°C 78% 1.6 mph W2.6 kmh W 7.6 mph12.2 kmh 30.03 in1016.9 mb 0.00 in0.0 mm 0.00 in0.0 mm 0.00 in0.0 mm
12:12 AM 34.0°F1.1°C 27.9°F-2.3°C 78% 0.7 mph W1.1 kmh W 7.6 mph12.2 kmh 30.04 in1017.3 mb 0.00 in0.0 mm 0.00 in0.0 mm 0.00 in0.0 mm
12:10 AM 34.0°F1.1°C 27.9°F-2.3°C 78% 1.6 mph WNW2.6 kmh WNW 8.3 mph13.4 kmh 30.03 in1016.9 mb 0.00 in0.0 mm 0.00 in0.0 mm 0.00 in0.0 mm
12:08 AM 34.0°F1.1°C 27.9°F-2.3°C 78% 0.7 mph WNW1.1 kmh WNW 8.3 mph13.4 kmh 30.03 in1016.9 mb 0.00 in0.0 mm 0.00 in0.0 mm 0.00 in0.0 mm
12:06 AM 34.0°F1.1°C 27.9°F-2.3°C 78% 1.6 mph NW2.6 kmh NW 8.3 mph13.4 kmh 30.03 in1016.9 mb 0.00 in0.0 mm 0.00 in0.0 mm 0.00 in0.0 mm
12:04 AM 34.0°F1.1°C 27.5°F-2.5°C 77% 1.6 mph WNW2.6 kmh WNW 8.3 mph13.4 kmh 30.03 in1016.9 mb 0.00 in0.0 mm 0.00 in0.0 mm 0.00 in0.0 mm
12:02 AM 34.0°F1.1°C 27.9°F-2.3°C 78% 3.1 mph WNW5.0 kmh WNW 8.3 mph13.4 kmh 30.03 in1016.9 mb 0.00 in0.0 mm 0.00 in0.0 mm 0.00 in0.0 mm
12:00 AM 34.0°F1.1°C 27.9°F-2.3°C 78% 0.7 mph WSW1.1 kmh WSW 7.6 mph12.2 kmh 30.03 in1016.9 mb 0.00 in0.0 mm 0.00 in0.0 mm 0.00 in0.0 mm